<?xml version="1.0" encoding="UTF-8" standalone="no" ?>
<gpx xmlns="http://www.topografix.com/GPX/1/1" xmlns:xsi="http://www.w3.org/2001/XMLSchema-instance" xsi:schemaLocation="http://www.topografix.com/GPX/1/1 http://www.topografix.com/GPX/1/1/gpx.xsd" version="1.1" creator="VisuGPX - https://www.visugpx.com">
  <metadata>
    <name>Ronde des châteaux 2</name>
    <desc><![CDATA[Course (1,0 m | 5 s | 100,0 m)

]]></desc>
  </metadata>
  <trk>
    <name><![CDATA[Ronde des châteaux 2]]></name>
    <cmt><![CDATA[Course (1,0 m | 5 s | 100,0 m)]]></cmt>
    <trkseg>
      <trkpt lat="45.55792" lon="4.82699">
        <ele>208.425095</ele>
        <time>2020-08-11T06:11:29.069Z</time>
      </trkpt>
      <trkpt lat="45.55801" lon="4.82681">
        <ele>207.992371</ele>
        <time>2020-08-11T06:11:34.378Z</time>
      </trkpt>
      <trkpt lat="45.55808" lon="4.82665">
        <ele>206.265182</ele>
        <time>2020-08-11T06:11:39.380Z</time>
      </trkpt>
      <trkpt lat="45.55813" lon="4.82651">
        <ele>205.908173</ele>
        <time>2020-08-11T06:11:44.393Z</time>
      </trkpt>
      <trkpt lat="45.55821" lon="4.82631">
        <ele>206.011719</ele>
        <time>2020-08-11T06:11:50.386Z</time>
      </trkpt>
      <trkpt lat="45.55829" lon="4.82614">
        <ele>205.921539</ele>
        <time>2020-08-11T06:12:11.437Z</time>
      </trkpt>
      <trkpt lat="45.55868" lon="4.82544">
        <ele>203.940063</ele>
        <time>2020-08-11T06:12:17.377Z</time>
      </trkpt>
      <trkpt lat="45.55876" lon="4.82533">
        <ele>202.680359</ele>
        <time>2020-08-11T06:12:34.016Z</time>
      </trkpt>
      <trkpt lat="45.55909" lon="4.82479">
        <ele>202.660843</ele>
        <time>2020-08-11T06:12:52.583Z</time>
      </trkpt>
      <trkpt lat="45.55878" lon="4.82458">
        <ele>201.782806</ele>
        <time>2020-08-11T06:13:05.065Z</time>
      </trkpt>
      <trkpt lat="45.55863" lon="4.825">
        <ele>202.830826</ele>
        <time>2020-08-11T06:13:17.498Z</time>
      </trkpt>
      <trkpt lat="45.55834" lon="4.8254">
        <ele>203.941055</ele>
        <time>2020-08-11T06:13:29.940Z</time>
      </trkpt>
      <trkpt lat="45.55809" lon="4.82568">
        <ele>203.342743</ele>
        <time>2020-08-11T06:13:48.483Z</time>
      </trkpt>
      <trkpt lat="45.55775" lon="4.82604">
        <ele>203.363708</ele>
        <time>2020-08-11T06:14:00.911Z</time>
      </trkpt>
      <trkpt lat="45.55743" lon="4.82642">
        <ele>201.736877</ele>
        <time>2020-08-11T06:14:19.542Z</time>
      </trkpt>
      <trkpt lat="45.55699" lon="4.82679">
        <ele>203.791824</ele>
        <time>2020-08-11T06:14:29.367Z</time>
      </trkpt>
      <trkpt lat="45.55688" lon="4.82692">
        <ele>206.958191</ele>
        <time>2020-08-11T06:14:34.392Z</time>
      </trkpt>
      <trkpt lat="45.55674" lon="4.82705">
        <ele>208.042877</ele>
        <time>2020-08-11T06:14:40.387Z</time>
      </trkpt>
      <trkpt lat="45.55662" lon="4.82717">
        <ele>209.176285</ele>
        <time>2020-08-11T06:14:46.387Z</time>
      </trkpt>
      <trkpt lat="45.5565" lon="4.82729">
        <ele>209.273376</ele>
        <time>2020-08-11T06:14:52.386Z</time>
      </trkpt>
      <trkpt lat="45.55638" lon="4.82742">
        <ele>208.007813</ele>
        <time>2020-08-11T06:14:58.367Z</time>
      </trkpt>
      <trkpt lat="45.55629" lon="4.82751">
        <ele>207.427048</ele>
        <time>2020-08-11T06:15:03.371Z</time>
      </trkpt>
      <trkpt lat="45.55618" lon="4.82764">
        <ele>207.564835</ele>
        <time>2020-08-11T06:15:08.389Z</time>
      </trkpt>
      <trkpt lat="45.55606" lon="4.82778">
        <ele>207.492691</ele>
        <time>2020-08-11T06:15:26.222Z</time>
      </trkpt>
      <trkpt lat="45.55568" lon="4.82816">
        <ele>204.179474</ele>
        <time>2020-08-11T06:15:31.381Z</time>
      </trkpt>
      <trkpt lat="45.55557" lon="4.82824">
        <ele>202.839951</ele>
        <time>2020-08-11T06:15:51.387Z</time>
      </trkpt>
      <trkpt lat="45.55505" lon="4.82876">
        <ele>201.339767</ele>
        <time>2020-08-11T06:16:07.259Z</time>
      </trkpt>
      <trkpt lat="45.55466" lon="4.82913">
        <ele>201.047607</ele>
        <time>2020-08-11T06:16:25.889Z</time>
      </trkpt>
      <trkpt lat="45.55437" lon="4.82948">
        <ele>200.469971</ele>
        <time>2020-08-11T06:16:44.716Z</time>
      </trkpt>
      <trkpt lat="45.55385" lon="4.83">
        <ele>201.00354</ele>
        <time>2020-08-11T06:16:57.144Z</time>
      </trkpt>
      <trkpt lat="45.5536" lon="4.83029">
        <ele>202.013184</ele>
        <time>2020-08-11T06:17:15.845Z</time>
      </trkpt>
      <trkpt lat="45.55327" lon="4.83061">
        <ele>201.672714</ele>
        <time>2020-08-11T06:17:21.369Z</time>
      </trkpt>
      <trkpt lat="45.55312" lon="4.83076">
        <ele>201.659195</ele>
        <time>2020-08-11T06:17:34.437Z</time>
      </trkpt>
      <trkpt lat="45.55274" lon="4.83112">
        <ele>200.640625</ele>
        <time>2020-08-11T06:17:53.098Z</time>
      </trkpt>
      <trkpt lat="45.5524" lon="4.83153">
        <ele>203.377426</ele>
        <time>2020-08-11T06:18:11.714Z</time>
      </trkpt>
      <trkpt lat="45.55185" lon="4.83205">
        <ele>202.043839</ele>
        <time>2020-08-11T06:18:24.054Z</time>
      </trkpt>
      <trkpt lat="45.55165" lon="4.83228">
        <ele>201.591904</ele>
        <time>2020-08-11T06:18:36.446Z</time>
      </trkpt>
      <trkpt lat="45.55137" lon="4.83258">
        <ele>201.290924</ele>
        <time>2020-08-11T06:18:48.887Z</time>
      </trkpt>
      <trkpt lat="45.551" lon="4.83294">
        <ele>200.442062</ele>
        <time>2020-08-11T06:19:01.273Z</time>
      </trkpt>
      <trkpt lat="45.55078" lon="4.83314">
        <ele>198.511047</ele>
        <time>2020-08-11T06:19:13.682Z</time>
      </trkpt>
      <trkpt lat="45.55051" lon="4.83348">
        <ele>199.097946</ele>
        <time>2020-08-11T06:19:32.382Z</time>
      </trkpt>
      <trkpt lat="45.55028" lon="4.83379">
        <ele>197.994202</ele>
        <time>2020-08-11T06:19:38.385Z</time>
      </trkpt>
      <trkpt lat="45.55038" lon="4.83386">
        <ele>198.038071</ele>
        <time>2020-08-11T06:19:50.932Z</time>
      </trkpt>
      <trkpt lat="45.55088" lon="4.83418">
        <ele>200.133652</ele>
        <time>2020-08-11T06:20:03.356Z</time>
      </trkpt>
      <trkpt lat="45.55114" lon="4.83425">
        <ele>201.797607</ele>
        <time>2020-08-11T06:20:22.000Z</time>
      </trkpt>
      <trkpt lat="45.55161" lon="4.8343">
        <ele>202.560974</ele>
        <time>2020-08-11T06:20:27.380Z</time>
      </trkpt>
      <trkpt lat="45.55184" lon="4.83419">
        <ele>202.423218</ele>
        <time>2020-08-11T06:20:36.357Z</time>
      </trkpt>
      <trkpt lat="45.55197" lon="4.83415">
        <ele>203.265137</ele>
        <time>2020-08-11T06:20:41.387Z</time>
      </trkpt>
      <trkpt lat="45.55216" lon="4.83411">
        <ele>205.138245</ele>
        <time>2020-08-11T06:20:49.388Z</time>
      </trkpt>
      <trkpt lat="45.55234" lon="4.83405">
        <ele>204.381393</ele>
        <time>2020-08-11T06:20:55.389Z</time>
      </trkpt>
      <trkpt lat="45.55248" lon="4.83398">
        <ele>203.354706</ele>
        <time>2020-08-11T06:21:01.382Z</time>
      </trkpt>
      <trkpt lat="45.55261" lon="4.83397">
        <ele>203.548477</ele>
        <time>2020-08-11T06:21:19.129Z</time>
      </trkpt>
      <trkpt lat="45.55306" lon="4.83375">
        <ele>204.985367</ele>
        <time>2020-08-11T06:21:24.397Z</time>
      </trkpt>
      <trkpt lat="45.55325" lon="4.83366">
        <ele>205.704742</ele>
        <time>2020-08-11T06:21:44.283Z</time>
      </trkpt>
      <trkpt lat="45.55379" lon="4.83324">
        <ele>202.750931</ele>
        <time>2020-08-11T06:22:09.434Z</time>
      </trkpt>
      <trkpt lat="45.55439" lon="4.83264">
        <ele>204.234497</ele>
        <time>2020-08-11T06:22:30.443Z</time>
      </trkpt>
      <trkpt lat="45.55474" lon="4.83219">
        <ele>203.444489</ele>
        <time>2020-08-11T06:22:36.389Z</time>
      </trkpt>
      <trkpt lat="45.55485" lon="4.832">
        <ele>203.836792</ele>
        <time>2020-08-11T06:22:49.052Z</time>
      </trkpt>
      <trkpt lat="45.55506" lon="4.83157">
        <ele>205.025284</ele>
        <time>2020-08-11T06:22:56.363Z</time>
      </trkpt>
      <trkpt lat="45.55515" lon="4.83145">
        <ele>205.338791</ele>
        <time>2020-08-11T06:23:01.373Z</time>
      </trkpt>
      <trkpt lat="45.55523" lon="4.83137">
        <ele>204.794876</ele>
        <time>2020-08-11T06:23:06.374Z</time>
      </trkpt>
      <trkpt lat="45.55532" lon="4.83121">
        <ele>204.579315</ele>
        <time>2020-08-11T06:23:18.113Z</time>
      </trkpt>
      <trkpt lat="45.55554" lon="4.83076">
        <ele>204.099533</ele>
        <time>2020-08-11T06:23:26.380Z</time>
      </trkpt>
      <trkpt lat="45.55561" lon="4.83063">
        <ele>204.043213</ele>
        <time>2020-08-11T06:23:31.386Z</time>
      </trkpt>
      <trkpt lat="45.55571" lon="4.83048">
        <ele>204.174362</ele>
        <time>2020-08-11T06:23:38.322Z</time>
      </trkpt>
      <trkpt lat="45.55583" lon="4.83031">
        <ele>204.591568</ele>
        <time>2020-08-11T06:23:43.390Z</time>
      </trkpt>
      <trkpt lat="45.55596" lon="4.83016">
        <ele>204.534332</ele>
        <time>2020-08-11T06:24:03.553Z</time>
      </trkpt>
      <trkpt lat="45.55632" lon="4.82952">
        <ele>201.60202</ele>
        <time>2020-08-11T06:24:28.700Z</time>
      </trkpt>
      <trkpt lat="45.55688" lon="4.82928">
        <ele>205.808334</ele>
        <time>2020-08-11T06:24:53.846Z</time>
      </trkpt>
      <trkpt lat="45.55728" lon="4.8286">
        <ele>209.934067</ele>
        <time>2020-08-11T06:25:10.633Z</time>
      </trkpt>
      <trkpt lat="45.55765" lon="4.82838">
        <ele>210.701401</ele>
        <time>2020-08-11T06:25:35.817Z</time>
      </trkpt>
      <trkpt lat="45.55822" lon="4.82801">
        <ele>218.861923</ele>
        <time>2020-08-11T06:25:52.556Z</time>
      </trkpt>
      <trkpt lat="45.55852" lon="4.82774">
        <ele>221.548721</ele>
        <time>2020-08-11T06:26:12.422Z</time>
      </trkpt>
      <trkpt lat="45.55876" lon="4.82719">
        <ele>227.716431</ele>
        <time>2020-08-11T06:26:37.545Z</time>
      </trkpt>
      <trkpt lat="45.55909" lon="4.82686">
        <ele>235.583206</ele>
        <time>2020-08-11T06:26:56.022Z</time>
      </trkpt>
      <trkpt lat="45.55928" lon="4.82647">
        <ele>237.795029</ele>
        <time>2020-08-11T06:27:01.380Z</time>
      </trkpt>
      <trkpt lat="45.55933" lon="4.82633">
        <ele>237.954071</ele>
        <time>2020-08-11T06:27:08.802Z</time>
      </trkpt>
      <trkpt lat="45.55949" lon="4.826">
        <ele>238.962173</ele>
        <time>2020-08-11T06:27:27.419Z</time>
      </trkpt>
      <trkpt lat="45.55982" lon="4.82583">
        <ele>238.739899</ele>
        <time>2020-08-11T06:27:39.803Z</time>
      </trkpt>
      <trkpt lat="45.56001" lon="4.82585">
        <ele>242.226974</ele>
        <time>2020-08-11T06:27:52.233Z</time>
      </trkpt>
      <trkpt lat="45.56033" lon="4.82578">
        <ele>242.546036</ele>
        <time>2020-08-11T06:28:10.868Z</time>
      </trkpt>
      <trkpt lat="45.56055" lon="4.8255">
        <ele>250.569946</ele>
        <time>2020-08-11T06:28:16.383Z</time>
      </trkpt>
      <trkpt lat="45.56064" lon="4.82542">
        <ele>251.920609</ele>
        <time>2020-08-11T06:28:23.229Z</time>
      </trkpt>
      <trkpt lat="45.5608" lon="4.82526">
        <ele>256.072083</ele>
        <time>2020-08-11T06:28:33.211Z</time>
      </trkpt>
      <trkpt lat="45.5609" lon="4.82521">
        <ele>259.626648</ele>
        <time>2020-08-11T06:28:38.369Z</time>
      </trkpt>
      <trkpt lat="45.56105" lon="4.82517">
        <ele>260.642395</ele>
        <time>2020-08-11T06:28:43.384Z</time>
      </trkpt>
      <trkpt lat="45.56117" lon="4.82513">
        <ele>261.719086</ele>
        <time>2020-08-11T06:28:49.385Z</time>
      </trkpt>
      <trkpt lat="45.56129" lon="4.82509">
        <ele>263.037415</ele>
        <time>2020-08-11T06:28:55.382Z</time>
      </trkpt>
      <trkpt lat="45.5615" lon="4.8252">
        <ele>261.084747</ele>
        <time>2020-08-11T06:29:05.371Z</time>
      </trkpt>
      <trkpt lat="45.56159" lon="4.82528">
        <ele>260.216522</ele>
        <time>2020-08-11T06:29:10.375Z</time>
      </trkpt>
      <trkpt lat="45.56177" lon="4.82543">
        <ele>260.525757</ele>
        <time>2020-08-11T06:29:17.383Z</time>
      </trkpt>
      <trkpt lat="45.56189" lon="4.82542">
        <ele>260.122314</ele>
        <time>2020-08-11T06:29:23.371Z</time>
      </trkpt>
      <trkpt lat="45.56201" lon="4.82535">
        <ele>259.533783</ele>
        <time>2020-08-11T06:29:28.385Z</time>
      </trkpt>
      <trkpt lat="45.56212" lon="4.82533">
        <ele>259.88324</ele>
        <time>2020-08-11T06:29:34.750Z</time>
      </trkpt>
      <trkpt lat="45.56234" lon="4.8252">
        <ele>259.466675</ele>
        <time>2020-08-11T06:29:51.528Z</time>
      </trkpt>
      <trkpt lat="45.56254" lon="4.82487">
        <ele>263.156555</ele>
        <time>2020-08-11T06:30:01.976Z</time>
      </trkpt>
      <trkpt lat="45.56276" lon="4.82477">
        <ele>266.828827</ele>
        <time>2020-08-11T06:30:20.596Z</time>
      </trkpt>
      <trkpt lat="45.56303" lon="4.82474">
        <ele>273.821442</ele>
        <time>2020-08-11T06:30:27.368Z</time>
      </trkpt>
      <trkpt lat="45.56313" lon="4.82476">
        <ele>277.863983</ele>
        <time>2020-08-11T06:30:32.393Z</time>
      </trkpt>
      <trkpt lat="45.56324" lon="4.82476">
        <ele>278.471436</ele>
        <time>2020-08-11T06:30:37.396Z</time>
      </trkpt>
      <trkpt lat="45.56336" lon="4.82471">
        <ele>279.048645</ele>
        <time>2020-08-11T06:30:43.366Z</time>
      </trkpt>
      <trkpt lat="45.56343" lon="4.82463">
        <ele>279.386078</ele>
        <time>2020-08-11T06:30:48.380Z</time>
      </trkpt>
      <trkpt lat="45.56352" lon="4.82454">
        <ele>279.892883</ele>
        <time>2020-08-11T06:30:54.371Z</time>
      </trkpt>
      <trkpt lat="45.5636" lon="4.82449">
        <ele>281.792236</ele>
        <time>2020-08-11T06:30:59.381Z</time>
      </trkpt>
      <trkpt lat="45.56368" lon="4.82444">
        <ele>283.015442</ele>
        <time>2020-08-11T06:31:04.388Z</time>
      </trkpt>
      <trkpt lat="45.5638" lon="4.82437">
        <ele>284.355255</ele>
        <time>2020-08-11T06:31:10.372Z</time>
      </trkpt>
      <trkpt lat="45.56389" lon="4.82426">
        <ele>287.231506</ele>
        <time>2020-08-11T06:31:15.393Z</time>
      </trkpt>
      <trkpt lat="45.56394" lon="4.82411">
        <ele>286.545105</ele>
        <time>2020-08-11T06:31:21.360Z</time>
      </trkpt>
      <trkpt lat="45.56401" lon="4.82399">
        <ele>283.80722</ele>
        <time>2020-08-11T06:31:26.394Z</time>
      </trkpt>
      <trkpt lat="45.56411" lon="4.82388">
        <ele>283.667084</ele>
        <time>2020-08-11T06:31:32.386Z</time>
      </trkpt>
      <trkpt lat="45.56423" lon="4.82381">
        <ele>284.743103</ele>
        <time>2020-08-11T06:31:37.391Z</time>
      </trkpt>
      <trkpt lat="45.56434" lon="4.82373">
        <ele>284.529724</ele>
        <time>2020-08-11T06:31:42.394Z</time>
      </trkpt>
      <trkpt lat="45.56445" lon="4.82366">
        <ele>283.832458</ele>
        <time>2020-08-11T06:31:48.392Z</time>
      </trkpt>
      <trkpt lat="45.56456" lon="4.82376">
        <ele>282.583344</ele>
        <time>2020-08-11T06:31:56.687Z</time>
      </trkpt>
      <trkpt lat="45.56455" lon="4.82408">
        <ele>282.486023</ele>
        <time>2020-08-11T06:32:13.457Z</time>
      </trkpt>
      <trkpt lat="45.5646" lon="4.82459">
        <ele>285.398224</ele>
        <time>2020-08-11T06:32:30.202Z</time>
      </trkpt>
      <trkpt lat="45.56489" lon="4.82495">
        <ele>285.902252</ele>
        <time>2020-08-11T06:32:44.693Z</time>
      </trkpt>
      <trkpt lat="45.56506" lon="4.8253">
        <ele>294.930817</ele>
        <time>2020-08-11T06:32:52.385Z</time>
      </trkpt>
      <trkpt lat="45.56502" lon="4.82547">
        <ele>296.553406</ele>
        <time>2020-08-11T06:32:57.399Z</time>
      </trkpt>
      <trkpt lat="45.565" lon="4.82565">
        <ele>298.673187</ele>
        <time>2020-08-11T06:33:03.377Z</time>
      </trkpt>
      <trkpt lat="45.56497" lon="4.82579">
        <ele>299.158234</ele>
        <time>2020-08-11T06:33:08.386Z</time>
      </trkpt>
      <trkpt lat="45.5649" lon="4.826">
        <ele>300.852539</ele>
        <time>2020-08-11T06:33:14.366Z</time>
      </trkpt>
      <trkpt lat="45.56482" lon="4.82611">
        <ele>301.62677</ele>
        <time>2020-08-11T06:33:19.379Z</time>
      </trkpt>
      <trkpt lat="45.56473" lon="4.82616">
        <ele>301.450958</ele>
        <time>2020-08-11T06:33:24.398Z</time>
      </trkpt>
      <trkpt lat="45.56461" lon="4.82624">
        <ele>301.119476</ele>
        <time>2020-08-11T06:33:30.397Z</time>
      </trkpt>
      <trkpt lat="45.56448" lon="4.8263">
        <ele>300.499756</ele>
        <time>2020-08-11T06:33:49.117Z</time>
      </trkpt>
      <trkpt lat="45.56394" lon="4.82644">
        <ele>297.75415</ele>
        <time>2020-08-11T06:34:00.374Z</time>
      </trkpt>
      <trkpt lat="45.5638" lon="4.82648">
        <ele>299.384369</ele>
        <time>2020-08-11T06:34:05.388Z</time>
      </trkpt>
      <trkpt lat="45.56378" lon="4.82665">
        <ele>302.694275</ele>
        <time>2020-08-11T06:34:11.369Z</time>
      </trkpt>
      <trkpt lat="45.56379" lon="4.82686">
        <ele>303.259003</ele>
        <time>2020-08-11T06:34:16.399Z</time>
      </trkpt>
      <trkpt lat="45.56382" lon="4.82709">
        <ele>304.684875</ele>
        <time>2020-08-11T06:34:23.370Z</time>
      </trkpt>
      <trkpt lat="45.56386" lon="4.82726">
        <ele>305.179565</ele>
        <time>2020-08-11T06:34:28.383Z</time>
      </trkpt>
      <trkpt lat="45.56392" lon="4.82748">
        <ele>304.961334</ele>
        <time>2020-08-11T06:34:38.392Z</time>
      </trkpt>
      <trkpt lat="45.56396" lon="4.82765">
        <ele>304.611725</ele>
        <time>2020-08-11T06:34:44.396Z</time>
      </trkpt>
      <trkpt lat="45.56401" lon="4.82782">
        <ele>303.758057</ele>
        <time>2020-08-11T06:34:50.408Z</time>
      </trkpt>
      <trkpt lat="45.56406" lon="4.82799">
        <ele>305.597412</ele>
        <time>2020-08-11T06:34:55.410Z</time>
      </trkpt>
      <trkpt lat="45.5641" lon="4.8282">
        <ele>307.172607</ele>
        <time>2020-08-11T06:35:01.394Z</time>
      </trkpt>
      <trkpt lat="45.56415" lon="4.82838">
        <ele>307.865387</ele>
        <time>2020-08-11T06:35:06.400Z</time>
      </trkpt>
      <trkpt lat="45.56418" lon="4.82853">
        <ele>308.775696</ele>
        <time>2020-08-11T06:35:11.407Z</time>
      </trkpt>
      <trkpt lat="45.56423" lon="4.82868">
        <ele>309.708252</ele>
        <time>2020-08-11T06:35:17.401Z</time>
      </trkpt>
      <trkpt lat="45.56431" lon="4.82887">
        <ele>310.034149</ele>
        <time>2020-08-11T06:35:23.392Z</time>
      </trkpt>
      <trkpt lat="45.56443" lon="4.82897">
        <ele>309.638428</ele>
        <time>2020-08-11T06:35:40.083Z</time>
      </trkpt>
      <trkpt lat="45.56486" lon="4.82912">
        <ele>305.892212</ele>
        <time>2020-08-11T06:35:47.364Z</time>
      </trkpt>
      <trkpt lat="45.56499" lon="4.82916">
        <ele>309.414429</ele>
        <time>2020-08-11T06:35:52.372Z</time>
      </trkpt>
      <trkpt lat="45.56509" lon="4.82917">
        <ele>309.777893</ele>
        <time>2020-08-11T06:35:57.378Z</time>
      </trkpt>
      <trkpt lat="45.56523" lon="4.82917">
        <ele>310.435272</ele>
        <time>2020-08-11T06:36:02.406Z</time>
      </trkpt>
      <trkpt lat="45.56535" lon="4.82917">
        <ele>310.650665</ele>
        <time>2020-08-11T06:36:07.410Z</time>
      </trkpt>
      <trkpt lat="45.56548" lon="4.82924">
        <ele>311.751556</ele>
        <time>2020-08-11T06:36:12.410Z</time>
      </trkpt>
      <trkpt lat="45.56559" lon="4.82934">
        <ele>311.258575</ele>
        <time>2020-08-11T06:36:18.400Z</time>
      </trkpt>
      <trkpt lat="45.56571" lon="4.82946">
        <ele>312.439026</ele>
        <time>2020-08-11T06:36:23.419Z</time>
      </trkpt>
      <trkpt lat="45.56584" lon="4.82959">
        <ele>312.952087</ele>
        <time>2020-08-11T06:36:29.408Z</time>
      </trkpt>
      <trkpt lat="45.56598" lon="4.82971">
        <ele>313.144165</ele>
        <time>2020-08-11T06:36:54.080Z</time>
      </trkpt>
      <trkpt lat="45.56658" lon="4.83041">
        <ele>310.829407</ele>
        <time>2020-08-11T06:37:10.857Z</time>
      </trkpt>
      <trkpt lat="45.56681" lon="4.83072">
        <ele>308.748566</ele>
        <time>2020-08-11T06:37:16.398Z</time>
      </trkpt>
      <trkpt lat="45.56695" lon="4.83083">
        <ele>308.828339</ele>
        <time>2020-08-11T06:37:25.289Z</time>
      </trkpt>
      <trkpt lat="45.56723" lon="4.83101">
        <ele>307.981201</ele>
        <time>2020-08-11T06:37:32.389Z</time>
      </trkpt>
      <trkpt lat="45.56734" lon="4.83113">
        <ele>308.655273</ele>
        <time>2020-08-11T06:37:38.420Z</time>
      </trkpt>
      <trkpt lat="45.56742" lon="4.83142">
        <ele>309.40564</ele>
        <time>2020-08-11T06:37:48.413Z</time>
      </trkpt>
      <trkpt lat="45.56747" lon="4.8316">
        <ele>308.455719</ele>
        <time>2020-08-11T06:37:53.413Z</time>
      </trkpt>
      <trkpt lat="45.56753" lon="4.8318">
        <ele>306.604248</ele>
        <time>2020-08-11T06:37:58.417Z</time>
      </trkpt>
      <trkpt lat="45.56761" lon="4.83194">
        <ele>305.468933</ele>
        <time>2020-08-11T06:38:03.422Z</time>
      </trkpt>
      <trkpt lat="45.56772" lon="4.83213">
        <ele>305.778625</ele>
        <time>2020-08-11T06:38:08.427Z</time>
      </trkpt>
      <trkpt lat="45.56786" lon="4.83222">
        <ele>304.200806</ele>
        <time>2020-08-11T06:38:13.437Z</time>
      </trkpt>
      <trkpt lat="45.568" lon="4.83228">
        <ele>301.489746</ele>
        <time>2020-08-11T06:38:19.403Z</time>
      </trkpt>
      <trkpt lat="45.56822" lon="4.83229">
        <ele>301.449829</ele>
        <time>2020-08-11T06:38:28.414Z</time>
      </trkpt>
      <trkpt lat="45.56836" lon="4.83227">
        <ele>300.91153</ele>
        <time>2020-08-11T06:38:34.394Z</time>
      </trkpt>
      <trkpt lat="45.56851" lon="4.83234">
        <ele>301.323853</ele>
        <time>2020-08-11T06:38:40.382Z</time>
      </trkpt>
      <trkpt lat="45.56864" lon="4.83238">
        <ele>300.480835</ele>
        <time>2020-08-11T06:38:45.404Z</time>
      </trkpt>
      <trkpt lat="45.56878" lon="4.83244">
        <ele>299.378662</ele>
        <time>2020-08-11T06:38:51.371Z</time>
      </trkpt>
      <trkpt lat="45.56891" lon="4.83252">
        <ele>300.173218</ele>
        <time>2020-08-11T06:38:56.415Z</time>
      </trkpt>
      <trkpt lat="45.56896" lon="4.83272">
        <ele>300.731262</ele>
        <time>2020-08-11T06:39:02.418Z</time>
      </trkpt>
      <trkpt lat="45.56891" lon="4.83282">
        <ele>301.548218</ele>
        <time>2020-08-11T06:39:08.398Z</time>
      </trkpt>
      <trkpt lat="45.56892" lon="4.83282">
        <ele>302.642914</ele>
        <time>2020-08-11T06:39:14.401Z</time>
      </trkpt>
      <trkpt lat="45.56898" lon="4.83268">
        <ele>302.851685</ele>
        <time>2020-08-11T06:39:19.406Z</time>
      </trkpt>
      <trkpt lat="45.56895" lon="4.83259">
        <ele>304.571808</ele>
        <time>2020-08-11T06:39:24.419Z</time>
      </trkpt>
      <trkpt lat="45.5688" lon="4.83247">
        <ele>303.83844</ele>
        <time>2020-08-11T06:39:30.395Z</time>
      </trkpt>
      <trkpt lat="45.56863" lon="4.83239">
        <ele>301.771332</ele>
        <time>2020-08-11T06:39:36.405Z</time>
      </trkpt>
      <trkpt lat="45.5685" lon="4.83232">
        <ele>299.751495</ele>
        <time>2020-08-11T06:39:42.401Z</time>
      </trkpt>
      <trkpt lat="45.5685" lon="4.83223">
        <ele>299.660461</ele>
        <time>2020-08-11T06:39:47.410Z</time>
      </trkpt>
      <trkpt lat="45.56858" lon="4.83222">
        <ele>299.858246</ele>
        <time>2020-08-11T06:39:54.400Z</time>
      </trkpt>
      <trkpt lat="45.56881" lon="4.83212">
        <ele>297.872986</ele>
        <time>2020-08-11T06:40:03.409Z</time>
      </trkpt>
      <trkpt lat="45.56889" lon="4.83206">
        <ele>296.411743</ele>
        <time>2020-08-11T06:40:09.391Z</time>
      </trkpt>
      <trkpt lat="45.56897" lon="4.832">
        <ele>296.072144</ele>
        <time>2020-08-11T06:40:14.423Z</time>
      </trkpt>
      <trkpt lat="45.5691" lon="4.83193">
        <ele>294.732117</ele>
        <time>2020-08-11T06:40:20.382Z</time>
      </trkpt>
      <trkpt lat="45.56922" lon="4.8319">
        <ele>293.297363</ele>
        <time>2020-08-11T06:40:25.383Z</time>
      </trkpt>
      <trkpt lat="45.5694" lon="4.83184">
        <ele>290.580353</ele>
        <time>2020-08-11T06:40:35.851Z</time>
      </trkpt>
      <trkpt lat="45.56971" lon="4.83175">
        <ele>285.641632</ele>
        <time>2020-08-11T06:40:53.897Z</time>
      </trkpt>
      <trkpt lat="45.57008" lon="4.8319">
        <ele>282.639801</ele>
        <time>2020-08-11T06:41:12.346Z</time>
      </trkpt>
      <trkpt lat="45.57047" lon="4.83191">
        <ele>277.20578</ele>
        <time>2020-08-11T06:41:19.373Z</time>
      </trkpt>
      <trkpt lat="45.57053" lon="4.83197">
        <ele>276.262665</ele>
        <time>2020-08-11T06:41:24.391Z</time>
      </trkpt>
      <trkpt lat="45.57054" lon="4.83197">
        <ele>274.560852</ele>
        <time>2020-08-11T06:41:29.407Z</time>
      </trkpt>
      <trkpt lat="45.57053" lon="4.83197">
        <ele>271.955261</ele>
        <time>2020-08-11T06:41:41.374Z</time>
      </trkpt>
      <trkpt lat="45.57052" lon="4.83196">
        <ele>271.640137</ele>
        <time>2020-08-11T06:41:47.391Z</time>
      </trkpt>
      <trkpt lat="45.57054" lon="4.83197">
        <ele>271.593719</ele>
        <time>2020-08-11T06:41:57.370Z</time>
      </trkpt>
      <trkpt lat="45.57063" lon="4.83205">
        <ele>272.904022</ele>
        <time>2020-08-11T06:42:02.401Z</time>
      </trkpt>
      <trkpt lat="45.57075" lon="4.83215">
        <ele>273.612823</ele>
        <time>2020-08-11T06:42:08.391Z</time>
      </trkpt>
      <trkpt lat="45.57084" lon="4.8323">
        <ele>275.050781</ele>
        <time>2020-08-11T06:42:14.399Z</time>
      </trkpt>
      <trkpt lat="45.57091" lon="4.83247">
        <ele>275.498779</ele>
        <time>2020-08-11T06:42:20.374Z</time>
      </trkpt>
      <trkpt lat="45.57096" lon="4.83253">
        <ele>275.108459</ele>
        <time>2020-08-11T06:42:25.392Z</time>
      </trkpt>
      <trkpt lat="45.57109" lon="4.83252">
        <ele>274.4487</ele>
        <time>2020-08-11T06:42:31.389Z</time>
      </trkpt>
      <trkpt lat="45.57114" lon="4.83243">
        <ele>274.080383</ele>
        <time>2020-08-11T06:42:37.387Z</time>
      </trkpt>
      <trkpt lat="45.57118" lon="4.83235">
        <ele>274.228455</ele>
        <time>2020-08-11T06:42:43.374Z</time>
      </trkpt>
      <trkpt lat="45.57126" lon="4.83226">
        <ele>273.802002</ele>
        <time>2020-08-11T06:42:48.383Z</time>
      </trkpt>
      <trkpt lat="45.57129" lon="4.8321">
        <ele>273.335785</ele>
        <time>2020-08-11T06:42:53.384Z</time>
      </trkpt>
      <trkpt lat="45.57138" lon="4.832">
        <ele>273.143311</ele>
        <time>2020-08-11T06:43:09.442Z</time>
      </trkpt>
      <trkpt lat="45.57153" lon="4.83154">
        <ele>272.21347</ele>
        <time>2020-08-11T06:43:21.878Z</time>
      </trkpt>
      <trkpt lat="45.57167" lon="4.83127">
        <ele>273.240509</ele>
        <time>2020-08-11T06:43:40.517Z</time>
      </trkpt>
      <trkpt lat="45.57196" lon="4.831">
        <ele>275.36438</ele>
        <time>2020-08-11T06:43:59.164Z</time>
      </trkpt>
      <trkpt lat="45.57228" lon="4.83079">
        <ele>275.765686</ele>
        <time>2020-08-11T06:44:11.638Z</time>
      </trkpt>
      <trkpt lat="45.57243" lon="4.83058">
        <ele>275.846832</ele>
        <time>2020-08-11T06:44:17.389Z</time>
      </trkpt>
      <trkpt lat="45.5725" lon="4.83047">
        <ele>276.072784</ele>
        <time>2020-08-11T06:44:24.000Z</time>
      </trkpt>
      <trkpt lat="45.57267" lon="4.83033">
        <ele>277.242279</ele>
        <time>2020-08-11T06:44:33.397Z</time>
      </trkpt>
      <trkpt lat="45.5728" lon="4.83024">
        <ele>299.168671</ele>
        <time>2020-08-11T06:44:42.389Z</time>
      </trkpt>
      <trkpt lat="45.57291" lon="4.83014">
        <ele>302.847717</ele>
        <time>2020-08-11T06:44:49.399Z</time>
      </trkpt>
      <trkpt lat="45.57302" lon="4.83004">
        <ele>303.359009</ele>
        <time>2020-08-11T06:44:55.382Z</time>
      </trkpt>
      <trkpt lat="45.57307" lon="4.82993">
        <ele>303.8414</ele>
        <time>2020-08-11T06:45:00.396Z</time>
      </trkpt>
      <trkpt lat="45.57316" lon="4.82986">
        <ele>303.748749</ele>
        <time>2020-08-11T06:45:06.394Z</time>
      </trkpt>
      <trkpt lat="45.57323" lon="4.82973">
        <ele>303.493408</ele>
        <time>2020-08-11T06:45:12.407Z</time>
      </trkpt>
      <trkpt lat="45.57333" lon="4.8296">
        <ele>304.270538</ele>
        <time>2020-08-11T06:45:18.403Z</time>
      </trkpt>
      <trkpt lat="45.57345" lon="4.82952">
        <ele>306.500031</ele>
        <time>2020-08-11T06:45:24.406Z</time>
      </trkpt>
      <trkpt lat="45.57355" lon="4.82942">
        <ele>308.306732</ele>
        <time>2020-08-11T06:45:30.383Z</time>
      </trkpt>
      <trkpt lat="45.57361" lon="4.82931">
        <ele>308.738586</ele>
        <time>2020-08-11T06:45:35.411Z</time>
      </trkpt>
      <trkpt lat="45.57371" lon="4.82922">
        <ele>309.5578</ele>
        <time>2020-08-11T06:45:52.999Z</time>
      </trkpt>
      <trkpt lat="45.57419" lon="4.82913">
        <ele>309.425751</ele>
        <time>2020-08-11T06:46:08.243Z</time>
      </trkpt>
      <trkpt lat="45.57447" lon="4.8291">
        <ele>308.936157</ele>
        <time>2020-08-11T06:46:20.657Z</time>
      </trkpt>
      <trkpt lat="45.57489" lon="4.82927">
        <ele>308.706757</ele>
        <time>2020-08-11T06:46:31.361Z</time>
      </trkpt>
      <trkpt lat="45.57503" lon="4.82942">
        <ele>312.325897</ele>
        <time>2020-08-11T06:46:36.392Z</time>
      </trkpt>
      <trkpt lat="45.57513" lon="4.82958">
        <ele>313.37027</ele>
        <time>2020-08-11T06:46:42.375Z</time>
      </trkpt>
      <trkpt lat="45.57521" lon="4.82972">
        <ele>312.905334</ele>
        <time>2020-08-11T06:46:47.393Z</time>
      </trkpt>
      <trkpt lat="45.57534" lon="4.82988">
        <ele>313.369843</ele>
        <time>2020-08-11T06:46:53.388Z</time>
      </trkpt>
      <trkpt lat="45.57543" lon="4.83007">
        <ele>314.138885</ele>
        <time>2020-08-11T06:46:59.386Z</time>
      </trkpt>
      <trkpt lat="45.57542" lon="4.83029">
        <ele>312.095825</ele>
        <time>2020-08-11T06:47:05.385Z</time>
      </trkpt>
      <trkpt lat="45.57538" lon="4.83049">
        <ele>312.367249</ele>
        <time>2020-08-11T06:47:10.387Z</time>
      </trkpt>
      <trkpt lat="45.57533" lon="4.83069">
        <ele>313.842621</ele>
        <time>2020-08-11T06:47:15.395Z</time>
      </trkpt>
      <trkpt lat="45.57528" lon="4.8309">
        <ele>314.689819</ele>
        <time>2020-08-11T06:47:21.385Z</time>
      </trkpt>
      <trkpt lat="45.57526" lon="4.83109">
        <ele>313.703339</ele>
        <time>2020-08-11T06:47:26.400Z</time>
      </trkpt>
      <trkpt lat="45.57523" lon="4.8313">
        <ele>312.885162</ele>
        <time>2020-08-11T06:47:32.386Z</time>
      </trkpt>
      <trkpt lat="45.57522" lon="4.83146">
        <ele>314.210083</ele>
        <time>2020-08-11T06:47:37.403Z</time>
      </trkpt>
      <trkpt lat="45.57521" lon="4.83171">
        <ele>316.235107</ele>
        <time>2020-08-11T06:47:43.408Z</time>
      </trkpt>
      <trkpt lat="45.57521" lon="4.83195">
        <ele>317.27887</ele>
        <time>2020-08-11T06:47:49.393Z</time>
      </trkpt>
      <trkpt lat="45.57522" lon="4.83212">
        <ele>316.450409</ele>
        <time>2020-08-11T06:47:54.394Z</time>
      </trkpt>
      <trkpt lat="45.57525" lon="4.83237">
        <ele>315.124023</ele>
        <time>2020-08-11T06:48:01.404Z</time>
      </trkpt>
      <trkpt lat="45.57526" lon="4.83257">
        <ele>314.056274</ele>
        <time>2020-08-11T06:48:06.423Z</time>
      </trkpt>
      <trkpt lat="45.57523" lon="4.83278">
        <ele>312.736969</ele>
        <time>2020-08-11T06:48:11.437Z</time>
      </trkpt>
      <trkpt lat="45.5752" lon="4.83297">
        <ele>312.084198</ele>
        <time>2020-08-11T06:48:16.443Z</time>
      </trkpt>
      <trkpt lat="45.57519" lon="4.83322">
        <ele>311.182251</ele>
        <time>2020-08-11T06:48:22.392Z</time>
      </trkpt>
      <trkpt lat="45.5752" lon="4.83342">
        <ele>309.688354</ele>
        <time>2020-08-11T06:48:27.403Z</time>
      </trkpt>
      <trkpt lat="45.57519" lon="4.83365">
        <ele>308.53598</ele>
        <time>2020-08-11T06:48:33.394Z</time>
      </trkpt>
      <trkpt lat="45.57518" lon="4.83386">
        <ele>308.248596</ele>
        <time>2020-08-11T06:48:39.423Z</time>
      </trkpt>
      <trkpt lat="45.57518" lon="4.8341">
        <ele>308.389008</ele>
        <time>2020-08-11T06:48:45.394Z</time>
      </trkpt>
      <trkpt lat="45.57519" lon="4.83432">
        <ele>307.52301</ele>
        <time>2020-08-11T06:48:50.402Z</time>
      </trkpt>
      <trkpt lat="45.57518" lon="4.83455">
        <ele>306.311066</ele>
        <time>2020-08-11T06:48:56.404Z</time>
      </trkpt>
      <trkpt lat="45.57512" lon="4.83475">
        <ele>305.589661</ele>
        <time>2020-08-11T06:49:01.412Z</time>
      </trkpt>
      <trkpt lat="45.57501" lon="4.83493">
        <ele>304.205841</ele>
        <time>2020-08-11T06:49:07.402Z</time>
      </trkpt>
      <trkpt lat="45.5749" lon="4.8351">
        <ele>305.010498</ele>
        <time>2020-08-11T06:49:12.408Z</time>
      </trkpt>
      <trkpt lat="45.57467" lon="4.8352">
        <ele>305.329224</ele>
        <time>2020-08-11T06:49:22.417Z</time>
      </trkpt>
      <trkpt lat="45.57454" lon="4.83548">
        <ele>305.613312</ele>
        <time>2020-08-11T06:49:32.404Z</time>
      </trkpt>
      <trkpt lat="45.57448" lon="4.83567">
        <ele>306.706604</ele>
        <time>2020-08-11T06:49:38.385Z</time>
      </trkpt>
      <trkpt lat="45.57444" lon="4.83581">
        <ele>307.257843</ele>
        <time>2020-08-11T06:49:43.401Z</time>
      </trkpt>
      <trkpt lat="45.57438" lon="4.83595">
        <ele>308.186951</ele>
        <time>2020-08-11T06:49:48.414Z</time>
      </trkpt>
      <trkpt lat="45.57433" lon="4.83605">
        <ele>309.920685</ele>
        <time>2020-08-11T06:49:54.405Z</time>
      </trkpt>
      <trkpt lat="45.57421" lon="4.83603">
        <ele>311.253357</ele>
        <time>2020-08-11T06:50:00.376Z</time>
      </trkpt>
      <trkpt lat="45.57409" lon="4.83593">
        <ele>312.781525</ele>
        <time>2020-08-11T06:50:05.391Z</time>
      </trkpt>
      <trkpt lat="45.57399" lon="4.83584">
        <ele>313.317993</ele>
        <time>2020-08-11T06:50:10.392Z</time>
      </trkpt>
      <trkpt lat="45.57386" lon="4.83577">
        <ele>313.19928</ele>
        <time>2020-08-11T06:50:16.359Z</time>
      </trkpt>
      <trkpt lat="45.57375" lon="4.8357">
        <ele>313.588409</ele>
        <time>2020-08-11T06:50:21.395Z</time>
      </trkpt>
      <trkpt lat="45.57359" lon="4.83563">
        <ele>313.890533</ele>
        <time>2020-08-11T06:50:27.408Z</time>
      </trkpt>
      <trkpt lat="45.57343" lon="4.83559">
        <ele>313.271088</ele>
        <time>2020-08-11T06:50:33.392Z</time>
      </trkpt>
      <trkpt lat="45.57326" lon="4.83559">
        <ele>313.740082</ele>
        <time>2020-08-11T06:50:39.393Z</time>
      </trkpt>
      <trkpt lat="45.57314" lon="4.8356">
        <ele>314.50885</ele>
        <time>2020-08-11T06:50:44.395Z</time>
      </trkpt>
      <trkpt lat="45.57299" lon="4.83559">
        <ele>314.68103</ele>
        <time>2020-08-11T06:50:50.384Z</time>
      </trkpt>
      <trkpt lat="45.57287" lon="4.8356">
        <ele>313.979706</ele>
        <time>2020-08-11T06:50:55.407Z</time>
      </trkpt>
      <trkpt lat="45.57273" lon="4.83557">
        <ele>315.374878</ele>
        <time>2020-08-11T06:51:01.386Z</time>
      </trkpt>
      <trkpt lat="45.57261" lon="4.83555">
        <ele>316.215912</ele>
        <time>2020-08-11T06:51:06.398Z</time>
      </trkpt>
      <trkpt lat="45.57245" lon="4.83553">
        <ele>314.098175</ele>
        <time>2020-08-11T06:51:12.384Z</time>
      </trkpt>
      <trkpt lat="45.57233" lon="4.83552">
        <ele>313.714874</ele>
        <time>2020-08-11T06:51:17.392Z</time>
      </trkpt>
      <trkpt lat="45.57215" lon="4.83553">
        <ele>313.637115</ele>
        <time>2020-08-11T06:51:23.363Z</time>
      </trkpt>
      <trkpt lat="45.57205" lon="4.83563">
        <ele>312.786194</ele>
        <time>2020-08-11T06:51:28.395Z</time>
      </trkpt>
      <trkpt lat="45.57202" lon="4.83573">
        <ele>312.790131</ele>
        <time>2020-08-11T06:51:33.402Z</time>
      </trkpt>
      <trkpt lat="45.57197" lon="4.83596">
        <ele>312.683228</ele>
        <time>2020-08-11T06:51:39.414Z</time>
      </trkpt>
      <trkpt lat="45.57195" lon="4.83617">
        <ele>315.349518</ele>
        <time>2020-08-11T06:51:45.411Z</time>
      </trkpt>
      <trkpt lat="45.57194" lon="4.83633">
        <ele>317.550964</ele>
        <time>2020-08-11T06:51:51.380Z</time>
      </trkpt>
      <trkpt lat="45.57186" lon="4.83643">
        <ele>318.768646</ele>
        <time>2020-08-11T06:51:56.397Z</time>
      </trkpt>
      <trkpt lat="45.57179" lon="4.83654">
        <ele>319.523193</ele>
        <time>2020-08-11T06:52:02.399Z</time>
      </trkpt>
      <trkpt lat="45.57177" lon="4.83666">
        <ele>320.21405</ele>
        <time>2020-08-11T06:52:07.409Z</time>
      </trkpt>
      <trkpt lat="45.57169" lon="4.83671">
        <ele>319.831604</ele>
        <time>2020-08-11T06:52:13.394Z</time>
      </trkpt>
      <trkpt lat="45.57144" lon="4.83675">
        <ele>319.590912</ele>
        <time>2020-08-11T06:52:22.409Z</time>
      </trkpt>
      <trkpt lat="45.57132" lon="4.8368">
        <ele>318.743011</ele>
        <time>2020-08-11T06:52:29.402Z</time>
      </trkpt>
      <trkpt lat="45.57121" lon="4.83687">
        <ele>318.30954</ele>
        <time>2020-08-11T06:52:34.414Z</time>
      </trkpt>
      <trkpt lat="45.57106" lon="4.83686">
        <ele>316.139099</ele>
        <time>2020-08-11T06:52:40.409Z</time>
      </trkpt>
      <trkpt lat="45.57095" lon="4.83682">
        <ele>313.969086</ele>
        <time>2020-08-11T06:52:46.405Z</time>
      </trkpt>
      <trkpt lat="45.5708" lon="4.83694">
        <ele>311.745728</ele>
        <time>2020-08-11T06:53:03.304Z</time>
      </trkpt>
      <trkpt lat="45.57051" lon="4.83743">
        <ele>305.125183</ele>
        <time>2020-08-11T06:53:15.785Z</time>
      </trkpt>
      <trkpt lat="45.57065" lon="4.8379">
        <ele>304.47995</ele>
        <time>2020-08-11T06:53:28.239Z</time>
      </trkpt>
      <trkpt lat="45.57084" lon="4.83829">
        <ele>302.874359</ele>
        <time>2020-08-11T06:53:40.616Z</time>
      </trkpt>
      <trkpt lat="45.57089" lon="4.83911">
        <ele>305.134827</ele>
        <time>2020-08-11T06:53:53.013Z</time>
      </trkpt>
      <trkpt lat="45.57087" lon="4.83959">
        <ele>304.33139</ele>
        <time>2020-08-11T06:54:03.733Z</time>
      </trkpt>
      <trkpt lat="45.57064" lon="4.83961">
        <ele>302.199982</ele>
        <time>2020-08-11T06:54:11.382Z</time>
      </trkpt>
      <trkpt lat="45.57063" lon="4.83959">
        <ele>293.425873</ele>
        <time>2020-08-11T06:54:17.397Z</time>
      </trkpt>
      <trkpt lat="45.57059" lon="4.83921">
        <ele>286.715302</ele>
        <time>2020-08-11T06:54:26.381Z</time>
      </trkpt>
      <trkpt lat="45.57057" lon="4.83902">
        <ele>288.842682</ele>
        <time>2020-08-11T06:54:31.393Z</time>
      </trkpt>
      <trkpt lat="45.57049" lon="4.83876">
        <ele>292.763062</ele>
        <time>2020-08-11T06:54:38.397Z</time>
      </trkpt>
      <trkpt lat="45.57039" lon="4.83859">
        <ele>295.606567</ele>
        <time>2020-08-11T06:54:44.374Z</time>
      </trkpt>
      <trkpt lat="45.57026" lon="4.83846">
        <ele>294.609741</ele>
        <time>2020-08-11T06:54:51.384Z</time>
      </trkpt>
      <trkpt lat="45.57026" lon="4.83844">
        <ele>292.816895</ele>
        <time>2020-08-11T06:54:56.388Z</time>
      </trkpt>
      <trkpt lat="45.57027" lon="4.83845">
        <ele>292.071747</ele>
        <time>2020-08-11T06:55:01.389Z</time>
      </trkpt>
      <trkpt lat="45.57026" lon="4.83846">
        <ele>293.701202</ele>
        <time>2020-08-11T06:55:10.400Z</time>
      </trkpt>
      <trkpt lat="45.57015" lon="4.83842">
        <ele>294.675446</ele>
        <time>2020-08-11T06:55:15.429Z</time>
      </trkpt>
      <trkpt lat="45.56999" lon="4.83826">
        <ele>295.066772</ele>
        <time>2020-08-11T06:55:21.988Z</time>
      </trkpt>
      <trkpt lat="45.5699" lon="4.83815">
        <ele>294.836182</ele>
        <time>2020-08-11T06:55:28.782Z</time>
      </trkpt>
      <trkpt lat="45.56977" lon="4.83788">
        <ele>293.830109</ele>
        <time>2020-08-11T06:55:42.277Z</time>
      </trkpt>
      <trkpt lat="45.56956" lon="4.8376">
        <ele>294.635895</ele>
        <time>2020-08-11T06:55:55.039Z</time>
      </trkpt>
      <trkpt lat="45.56929" lon="4.83746">
        <ele>297.038452</ele>
        <time>2020-08-11T06:56:00.393Z</time>
      </trkpt>
      <trkpt lat="45.56916" lon="4.8374">
        <ele>297.320526</ele>
        <time>2020-08-11T06:56:07.430Z</time>
      </trkpt>
      <trkpt lat="45.5689" lon="4.83731">
        <ele>299.708191</ele>
        <time>2020-08-11T06:56:15.380Z</time>
      </trkpt>
      <trkpt lat="45.5688" lon="4.83727">
        <ele>297.937225</ele>
        <time>2020-08-11T06:56:20.402Z</time>
      </trkpt>
      <trkpt lat="45.56873" lon="4.83725">
        <ele>298.850647</ele>
        <time>2020-08-11T06:56:26.394Z</time>
      </trkpt>
      <trkpt lat="45.56868" lon="4.83727">
        <ele>299.76474</ele>
        <time>2020-08-11T06:56:32.404Z</time>
      </trkpt>
      <trkpt lat="45.56868" lon="4.83726">
        <ele>299.189636</ele>
        <time>2020-08-11T06:56:39.410Z</time>
      </trkpt>
      <trkpt lat="45.56877" lon="4.83726">
        <ele>299.15271</ele>
        <time>2020-08-11T06:56:45.371Z</time>
      </trkpt>
      <trkpt lat="45.56893" lon="4.83734">
        <ele>298.296936</ele>
        <time>2020-08-11T06:56:50.402Z</time>
      </trkpt>
      <trkpt lat="45.5691" lon="4.83741">
        <ele>294.127411</ele>
        <time>2020-08-11T06:56:55.402Z</time>
      </trkpt>
      <trkpt lat="45.56927" lon="4.83748">
        <ele>293.644012</ele>
        <time>2020-08-11T06:57:00.410Z</time>
      </trkpt>
      <trkpt lat="45.56944" lon="4.83755">
        <ele>292.820343</ele>
        <time>2020-08-11T06:57:06.389Z</time>
      </trkpt>
      <trkpt lat="45.56956" lon="4.83762">
        <ele>292.252228</ele>
        <time>2020-08-11T06:57:11.410Z</time>
      </trkpt>
      <trkpt lat="45.56978" lon="4.83792">
        <ele>295.045258</ele>
        <time>2020-08-11T06:57:20.402Z</time>
      </trkpt>
      <trkpt lat="45.56997" lon="4.83822">
        <ele>295.252441</ele>
        <time>2020-08-11T06:57:28.400Z</time>
      </trkpt>
      <trkpt lat="45.57008" lon="4.83835">
        <ele>297.367889</ele>
        <time>2020-08-11T06:57:34.400Z</time>
      </trkpt>
      <trkpt lat="45.57026" lon="4.83847">
        <ele>298.286926</ele>
        <time>2020-08-11T06:57:40.389Z</time>
      </trkpt>
      <trkpt lat="45.57034" lon="4.83848">
        <ele>297.815796</ele>
        <time>2020-08-11T06:57:46.388Z</time>
      </trkpt>
      <trkpt lat="45.57034" lon="4.8384">
        <ele>297.250244</ele>
        <time>2020-08-11T06:57:52.395Z</time>
      </trkpt>
      <trkpt lat="45.57035" lon="4.8383">
        <ele>296.499603</ele>
        <time>2020-08-11T06:57:57.397Z</time>
      </trkpt>
      <trkpt lat="45.57037" lon="4.83819">
        <ele>292.308563</ele>
        <time>2020-08-11T06:58:05.394Z</time>
      </trkpt>
      <trkpt lat="45.57039" lon="4.83805">
        <ele>293.997437</ele>
        <time>2020-08-11T06:58:13.391Z</time>
      </trkpt>
      <trkpt lat="45.57029" lon="4.83794">
        <ele>293.20993</ele>
        <time>2020-08-11T06:58:20.392Z</time>
      </trkpt>
      <trkpt lat="45.57021" lon="4.8377">
        <ele>290.968201</ele>
        <time>2020-08-11T06:58:28.394Z</time>
      </trkpt>
      <trkpt lat="45.57019" lon="4.83749">
        <ele>289.365997</ele>
        <time>2020-08-11T06:58:33.397Z</time>
      </trkpt>
      <trkpt lat="45.57012" lon="4.8372">
        <ele>288.030731</ele>
        <time>2020-08-11T06:58:39.405Z</time>
      </trkpt>
      <trkpt lat="45.57007" lon="4.83703">
        <ele>287.140228</ele>
        <time>2020-08-11T06:58:45.425Z</time>
      </trkpt>
      <trkpt lat="45.57003" lon="4.83682">
        <ele>285.41803</ele>
        <time>2020-08-11T06:59:04.581Z</time>
      </trkpt>
      <trkpt lat="45.56992" lon="4.83598">
        <ele>284.576904</ele>
        <time>2020-08-11T06:59:13.367Z</time>
      </trkpt>
      <trkpt lat="45.57" lon="4.83583">
        <ele>282.377899</ele>
        <time>2020-08-11T06:59:18.410Z</time>
      </trkpt>
      <trkpt lat="45.57005" lon="4.83561">
        <ele>279.226288</ele>
        <time>2020-08-11T06:59:24.404Z</time>
      </trkpt>
      <trkpt lat="45.57014" lon="4.83541">
        <ele>276.148682</ele>
        <time>2020-08-11T06:59:29.404Z</time>
      </trkpt>
      <trkpt lat="45.57022" lon="4.83523">
        <ele>275.213104</ele>
        <time>2020-08-11T06:59:35.401Z</time>
      </trkpt>
      <trkpt lat="45.57034" lon="4.83502">
        <ele>272.133667</ele>
        <time>2020-08-11T06:59:41.401Z</time>
      </trkpt>
      <trkpt lat="45.57045" lon="4.83484">
        <ele>270.948273</ele>
        <time>2020-08-11T06:59:46.405Z</time>
      </trkpt>
      <trkpt lat="45.57053" lon="4.8347">
        <ele>271.754608</ele>
        <time>2020-08-11T06:59:52.401Z</time>
      </trkpt>
      <trkpt lat="45.57069" lon="4.83455">
        <ele>271.570923</ele>
        <time>2020-08-11T06:59:58.393Z</time>
      </trkpt>
      <trkpt lat="45.57086" lon="4.83439">
        <ele>270.990631</ele>
        <time>2020-08-11T07:00:15.810Z</time>
      </trkpt>
      <trkpt lat="45.57135" lon="4.83425">
        <ele>270.417084</ele>
        <time>2020-08-11T07:00:21.386Z</time>
      </trkpt>
      <trkpt lat="45.57146" lon="4.83421">
        <ele>270.198181</ele>
        <time>2020-08-11T07:00:34.421Z</time>
      </trkpt>
      <trkpt lat="45.57119" lon="4.83349">
        <ele>277.149933</ele>
        <time>2020-08-11T07:00:42.387Z</time>
      </trkpt>
      <trkpt lat="45.57113" lon="4.83332">
        <ele>276.853424</ele>
        <time>2020-08-11T07:00:48.384Z</time>
      </trkpt>
      <trkpt lat="45.57109" lon="4.83314">
        <ele>275.675568</ele>
        <time>2020-08-11T07:00:53.404Z</time>
      </trkpt>
      <trkpt lat="45.57105" lon="4.83291">
        <ele>276.059143</ele>
        <time>2020-08-11T07:00:59.397Z</time>
      </trkpt>
      <trkpt lat="45.571" lon="4.83277">
        <ele>278.223389</ele>
        <time>2020-08-11T07:01:04.403Z</time>
      </trkpt>
      <trkpt lat="45.57088" lon="4.83259">
        <ele>280.776489</ele>
        <time>2020-08-11T07:01:10.401Z</time>
      </trkpt>
      <trkpt lat="45.57078" lon="4.83239">
        <ele>280.359344</ele>
        <time>2020-08-11T07:01:16.396Z</time>
      </trkpt>
      <trkpt lat="45.57069" lon="4.83229">
        <ele>279.236603</ele>
        <time>2020-08-11T07:01:22.379Z</time>
      </trkpt>
      <trkpt lat="45.57066" lon="4.83218">
        <ele>277.007324</ele>
        <time>2020-08-11T07:01:27.388Z</time>
      </trkpt>
      <trkpt lat="45.57061" lon="4.83208">
        <ele>274.384766</ele>
        <time>2020-08-11T07:01:32.395Z</time>
      </trkpt>
      <trkpt lat="45.57055" lon="4.83199">
        <ele>272.849548</ele>
        <time>2020-08-11T07:01:38.387Z</time>
      </trkpt>
      <trkpt lat="45.57054" lon="4.83198">
        <ele>273.2547</ele>
        <time>2020-08-11T07:01:43.420Z</time>
      </trkpt>
      <trkpt lat="45.57032" lon="4.83197">
        <ele>274.874298</ele>
        <time>2020-08-11T07:01:53.395Z</time>
      </trkpt>
      <trkpt lat="45.57026" lon="4.83198">
        <ele>273.343475</ele>
        <time>2020-08-11T07:01:59.399Z</time>
      </trkpt>
      <trkpt lat="45.57036" lon="4.83209">
        <ele>274.895599</ele>
        <time>2020-08-11T07:02:08.396Z</time>
      </trkpt>
      <trkpt lat="45.57032" lon="4.83214">
        <ele>277.020752</ele>
        <time>2020-08-11T07:02:15.402Z</time>
      </trkpt>
      <trkpt lat="45.57024" lon="4.83225">
        <ele>278.349762</ele>
        <time>2020-08-11T07:02:23.394Z</time>
      </trkpt>
      <trkpt lat="45.57017" lon="4.83232">
        <ele>280.914917</ele>
        <time>2020-08-11T07:02:32.398Z</time>
      </trkpt>
      <trkpt lat="45.57011" lon="4.83235">
        <ele>279.901642</ele>
        <time>2020-08-11T07:02:38.403Z</time>
      </trkpt>
      <trkpt lat="45.57003" lon="4.83233">
        <ele>280.183167</ele>
        <time>2020-08-11T07:02:44.395Z</time>
      </trkpt>
      <trkpt lat="45.56991" lon="4.83232">
        <ele>281.804352</ele>
        <time>2020-08-11T07:02:49.410Z</time>
      </trkpt>
      <trkpt lat="45.56984" lon="4.83237">
        <ele>283.14328</ele>
        <time>2020-08-11T07:02:54.415Z</time>
      </trkpt>
      <trkpt lat="45.56981" lon="4.8323">
        <ele>285.420959</ele>
        <time>2020-08-11T07:03:00.401Z</time>
      </trkpt>
      <trkpt lat="45.56979" lon="4.83221">
        <ele>287.139252</ele>
        <time>2020-08-11T07:03:06.396Z</time>
      </trkpt>
      <trkpt lat="45.56974" lon="4.83215">
        <ele>288.085876</ele>
        <time>2020-08-11T07:03:12.403Z</time>
      </trkpt>
      <trkpt lat="45.56966" lon="4.83213">
        <ele>289.179413</ele>
        <time>2020-08-11T07:03:17.406Z</time>
      </trkpt>
      <trkpt lat="45.56961" lon="4.8322">
        <ele>290.535645</ele>
        <time>2020-08-11T07:03:23.404Z</time>
      </trkpt>
      <trkpt lat="45.56959" lon="4.83231">
        <ele>291.725189</ele>
        <time>2020-08-11T07:03:28.408Z</time>
      </trkpt>
      <trkpt lat="45.56957" lon="4.83239">
        <ele>292.08316</ele>
        <time>2020-08-11T07:03:34.394Z</time>
      </trkpt>
      <trkpt lat="45.56954" lon="4.83242">
        <ele>293.83139</ele>
        <time>2020-08-11T07:03:39.399Z</time>
      </trkpt>
      <trkpt lat="45.56948" lon="4.83242">
        <ele>294.299164</ele>
        <time>2020-08-11T07:03:50.289Z</time>
      </trkpt>
      <trkpt lat="45.56933" lon="4.83239">
        <ele>293.319122</ele>
        <time>2020-08-11T07:03:56.390Z</time>
      </trkpt>
      <trkpt lat="45.56931" lon="4.83249">
        <ele>292.263916</ele>
        <time>2020-08-11T07:04:07.072Z</time>
      </trkpt>
      <trkpt lat="45.56907" lon="4.83259">
        <ele>294.217957</ele>
        <time>2020-08-11T07:04:18.939Z</time>
      </trkpt>
      <trkpt lat="45.56888" lon="4.83247">
        <ele>304.22699</ele>
        <time>2020-08-11T07:04:25.386Z</time>
      </trkpt>
      <trkpt lat="45.56878" lon="4.83247">
        <ele>304.053772</ele>
        <time>2020-08-11T07:04:30.394Z</time>
      </trkpt>
      <trkpt lat="45.56865" lon="4.83242">
        <ele>303.879211</ele>
        <time>2020-08-11T07:04:36.394Z</time>
      </trkpt>
      <trkpt lat="45.56855" lon="4.83237">
        <ele>304.382874</ele>
        <time>2020-08-11T07:04:41.400Z</time>
      </trkpt>
      <trkpt lat="45.56851" lon="4.83235">
        <ele>305.004791</ele>
        <time>2020-08-11T07:04:47.397Z</time>
      </trkpt>
      <trkpt lat="45.56852" lon="4.83234">
        <ele>305.257965</ele>
        <time>2020-08-11T07:05:04.382Z</time>
      </trkpt>
      <trkpt lat="45.56858" lon="4.83237">
        <ele>304.409973</ele>
        <time>2020-08-11T07:05:09.386Z</time>
      </trkpt>
      <trkpt lat="45.56865" lon="4.8324">
        <ele>303.774597</ele>
        <time>2020-08-11T07:05:14.391Z</time>
      </trkpt>
      <trkpt lat="45.56873" lon="4.83245">
        <ele>304.580353</ele>
        <time>2020-08-11T07:05:19.418Z</time>
      </trkpt>
      <trkpt lat="45.56882" lon="4.83251">
        <ele>305.146118</ele>
        <time>2020-08-11T07:05:25.412Z</time>
      </trkpt>
      <trkpt lat="45.56882" lon="4.8326">
        <ele>305.746918</ele>
        <time>2020-08-11T07:05:30.414Z</time>
      </trkpt>
      <trkpt lat="45.56874" lon="4.8327">
        <ele>306.68161</ele>
        <time>2020-08-11T07:05:37.406Z</time>
      </trkpt>
      <trkpt lat="45.56866" lon="4.83285">
        <ele>306.711761</ele>
        <time>2020-08-11T07:05:45.412Z</time>
      </trkpt>
      <trkpt lat="45.56856" lon="4.833">
        <ele>303.476105</ele>
        <time>2020-08-11T07:05:51.409Z</time>
      </trkpt>
      <trkpt lat="45.56846" lon="4.83313">
        <ele>300.195557</ele>
        <time>2020-08-11T07:05:57.398Z</time>
      </trkpt>
      <trkpt lat="45.5684" lon="4.83318">
        <ele>298.269745</ele>
        <time>2020-08-11T07:06:02.416Z</time>
      </trkpt>
      <trkpt lat="45.5683" lon="4.83321">
        <ele>296.48642</ele>
        <time>2020-08-11T07:06:08.396Z</time>
      </trkpt>
      <trkpt lat="45.5682" lon="4.83322">
        <ele>296.297363</ele>
        <time>2020-08-11T07:06:14.419Z</time>
      </trkpt>
      <trkpt lat="45.56804" lon="4.83319">
        <ele>297.213043</ele>
        <time>2020-08-11T07:06:20.410Z</time>
      </trkpt>
      <trkpt lat="45.56785" lon="4.83316">
        <ele>300.114655</ele>
        <time>2020-08-11T07:06:27.417Z</time>
      </trkpt>
      <trkpt lat="45.56765" lon="4.83317">
        <ele>304.174866</ele>
        <time>2020-08-11T07:06:37.406Z</time>
      </trkpt>
      <trkpt lat="45.56749" lon="4.83317">
        <ele>306.058441</ele>
        <time>2020-08-11T07:06:47.417Z</time>
      </trkpt>
      <trkpt lat="45.56741" lon="4.83319">
        <ele>306.912903</ele>
        <time>2020-08-11T07:06:53.411Z</time>
      </trkpt>
      <trkpt lat="45.56735" lon="4.83322">
        <ele>307.395477</ele>
        <time>2020-08-11T07:06:59.410Z</time>
      </trkpt>
      <trkpt lat="45.56729" lon="4.83325">
        <ele>308.553772</ele>
        <time>2020-08-11T07:07:05.400Z</time>
      </trkpt>
      <trkpt lat="45.56722" lon="4.83328">
        <ele>308.858826</ele>
        <time>2020-08-11T07:07:10.417Z</time>
      </trkpt>
      <trkpt lat="45.56713" lon="4.83329">
        <ele>309.615906</ele>
        <time>2020-08-11T07:07:16.410Z</time>
      </trkpt>
      <trkpt lat="45.56708" lon="4.83327">
        <ele>309.424438</ele>
        <time>2020-08-11T07:07:22.400Z</time>
      </trkpt>
      <trkpt lat="45.56696" lon="4.8333">
        <ele>309.182007</ele>
        <time>2020-08-11T07:07:27.402Z</time>
      </trkpt>
      <trkpt lat="45.56681" lon="4.83334">
        <ele>308.00412</ele>
        <time>2020-08-11T07:07:34.401Z</time>
      </trkpt>
      <trkpt lat="45.5667" lon="4.83339">
        <ele>308.340576</ele>
        <time>2020-08-11T07:07:39.401Z</time>
      </trkpt>
      <trkpt lat="45.56653" lon="4.83345">
        <ele>308.278015</ele>
        <time>2020-08-11T07:07:45.414Z</time>
      </trkpt>
      <trkpt lat="45.56639" lon="4.83348">
        <ele>308.071472</ele>
        <time>2020-08-11T07:07:51.394Z</time>
      </trkpt>
      <trkpt lat="45.56627" lon="4.83352">
        <ele>307.87323</ele>
        <time>2020-08-11T07:07:56.397Z</time>
      </trkpt>
      <trkpt lat="45.56611" lon="4.83358">
        <ele>308.39032</ele>
        <time>2020-08-11T07:08:08.005Z</time>
      </trkpt>
      <trkpt lat="45.56568" lon="4.83373">
        <ele>312.214874</ele>
        <time>2020-08-11T07:08:20.409Z</time>
      </trkpt>
      <trkpt lat="45.56539" lon="4.83385">
        <ele>313.27179</ele>
        <time>2020-08-11T07:08:30.446Z</time>
      </trkpt>
      <trkpt lat="45.56523" lon="4.83393">
        <ele>318.220764</ele>
        <time>2020-08-11T07:08:36.408Z</time>
      </trkpt>
      <trkpt lat="45.56511" lon="4.83414">
        <ele>318.185608</ele>
        <time>2020-08-11T07:08:46.397Z</time>
      </trkpt>
      <trkpt lat="45.56517" lon="4.83434">
        <ele>318.143066</ele>
        <time>2020-08-11T07:08:53.903Z</time>
      </trkpt>
      <trkpt lat="45.56528" lon="4.83475">
        <ele>319.227356</ele>
        <time>2020-08-11T07:09:02.398Z</time>
      </trkpt>
      <trkpt lat="45.56533" lon="4.83489">
        <ele>319.060516</ele>
        <time>2020-08-11T07:09:07.398Z</time>
      </trkpt>
      <trkpt lat="45.56539" lon="4.8351">
        <ele>318.281342</ele>
        <time>2020-08-11T07:09:13.383Z</time>
      </trkpt>
      <trkpt lat="45.56545" lon="4.83525">
        <ele>318.719513</ele>
        <time>2020-08-11T07:09:23.093Z</time>
      </trkpt>
      <trkpt lat="45.56557" lon="4.83557">
        <ele>320.097839</ele>
        <time>2020-08-11T07:09:37.817Z</time>
      </trkpt>
      <trkpt lat="45.56573" lon="4.83604">
        <ele>320.555176</ele>
        <time>2020-08-11T07:09:56.430Z</time>
      </trkpt>
      <trkpt lat="45.56599" lon="4.83667">
        <ele>318.333405</ele>
        <time>2020-08-11T07:10:08.209Z</time>
      </trkpt>
      <trkpt lat="45.56624" lon="4.83679">
        <ele>321.835327</ele>
        <time>2020-08-11T07:10:16.404Z</time>
      </trkpt>
      <trkpt lat="45.56637" lon="4.83683">
        <ele>320.482819</ele>
        <time>2020-08-11T07:10:21.411Z</time>
      </trkpt>
      <trkpt lat="45.56646" lon="4.83693">
        <ele>315.520966</ele>
        <time>2020-08-11T07:10:30.385Z</time>
      </trkpt>
      <trkpt lat="45.56633" lon="4.83709">
        <ele>313.173065</ele>
        <time>2020-08-11T07:10:35.387Z</time>
      </trkpt>
      <trkpt lat="45.56637" lon="4.83732">
        <ele>311.324524</ele>
        <time>2020-08-11T07:10:41.389Z</time>
      </trkpt>
      <trkpt lat="45.56648" lon="4.8375">
        <ele>310.705109</ele>
        <time>2020-08-11T07:10:46.402Z</time>
      </trkpt>
      <trkpt lat="45.56661" lon="4.83762">
        <ele>310.898712</ele>
        <time>2020-08-11T07:10:52.397Z</time>
      </trkpt>
      <trkpt lat="45.56669" lon="4.83768">
        <ele>311.798401</ele>
        <time>2020-08-11T07:10:57.456Z</time>
      </trkpt>
      <trkpt lat="45.56679" lon="4.83781">
        <ele>310.720581</ele>
        <time>2020-08-11T07:11:03.377Z</time>
      </trkpt>
      <trkpt lat="45.56686" lon="4.83795">
        <ele>310.36087</ele>
        <time>2020-08-11T07:11:08.380Z</time>
      </trkpt>
      <trkpt lat="45.56693" lon="4.83811">
        <ele>309.744171</ele>
        <time>2020-08-11T07:11:22.290Z</time>
      </trkpt>
      <trkpt lat="45.5671" lon="4.83867">
        <ele>308.49762</ele>
        <time>2020-08-11T07:11:37.828Z</time>
      </trkpt>
      <trkpt lat="45.56725" lon="4.83908">
        <ele>313.943878</ele>
        <time>2020-08-11T07:11:46.397Z</time>
      </trkpt>
      <trkpt lat="45.56729" lon="4.83921">
        <ele>315.715576</ele>
        <time>2020-08-11T07:11:51.401Z</time>
      </trkpt>
      <trkpt lat="45.56733" lon="4.83931">
        <ele>315.99765</ele>
        <time>2020-08-11T07:11:57.391Z</time>
      </trkpt>
      <trkpt lat="45.56736" lon="4.8395">
        <ele>314.6922</ele>
        <time>2020-08-11T07:12:03.386Z</time>
      </trkpt>
      <trkpt lat="45.5674" lon="4.83969">
        <ele>312.921112</ele>
        <time>2020-08-11T07:12:08.402Z</time>
      </trkpt>
      <trkpt lat="45.56741" lon="4.83986">
        <ele>311.480316</ele>
        <time>2020-08-11T07:12:13.405Z</time>
      </trkpt>
      <trkpt lat="45.56738" lon="4.84008">
        <ele>309.464874</ele>
        <time>2020-08-11T07:12:19.395Z</time>
      </trkpt>
      <trkpt lat="45.56734" lon="4.84031">
        <ele>309.325745</ele>
        <time>2020-08-11T07:12:25.400Z</time>
      </trkpt>
      <trkpt lat="45.56733" lon="4.84054">
        <ele>309.269531</ele>
        <time>2020-08-11T07:12:30.412Z</time>
      </trkpt>
      <trkpt lat="45.5673" lon="4.8408">
        <ele>311.196899</ele>
        <time>2020-08-11T07:12:36.384Z</time>
      </trkpt>
      <trkpt lat="45.56728" lon="4.84099">
        <ele>311.479156</ele>
        <time>2020-08-11T07:12:41.389Z</time>
      </trkpt>
      <trkpt lat="45.56725" lon="4.84119">
        <ele>311.029205</ele>
        <time>2020-08-11T07:12:46.393Z</time>
      </trkpt>
      <trkpt lat="45.56719" lon="4.84146">
        <ele>307.244965</ele>
        <time>2020-08-11T07:12:53.390Z</time>
      </trkpt>
      <trkpt lat="45.56713" lon="4.84163">
        <ele>305.702209</ele>
        <time>2020-08-11T07:12:58.407Z</time>
      </trkpt>
      <trkpt lat="45.56707" lon="4.84179">
        <ele>305.243134</ele>
        <time>2020-08-11T07:13:04.406Z</time>
      </trkpt>
      <trkpt lat="45.56701" lon="4.84199">
        <ele>305.349487</ele>
        <time>2020-08-11T07:13:15.962Z</time>
      </trkpt>
      <trkpt lat="45.56688" lon="4.84238">
        <ele>306.424408</ele>
        <time>2020-08-11T07:13:22.392Z</time>
      </trkpt>
      <trkpt lat="45.56682" lon="4.84249">
        <ele>309.754333</ele>
        <time>2020-08-11T07:13:27.404Z</time>
      </trkpt>
      <trkpt lat="45.56677" lon="4.84262">
        <ele>310.377533</ele>
        <time>2020-08-11T07:13:33.390Z</time>
      </trkpt>
      <trkpt lat="45.56677" lon="4.84268">
        <ele>310.668671</ele>
        <time>2020-08-11T07:13:38.396Z</time>
      </trkpt>
      <trkpt lat="45.5668" lon="4.84271">
        <ele>312.076019</ele>
        <time>2020-08-11T07:13:43.407Z</time>
      </trkpt>
      <trkpt lat="45.56675" lon="4.84269">
        <ele>311.322693</ele>
        <time>2020-08-11T07:13:49.401Z</time>
      </trkpt>
      <trkpt lat="45.56676" lon="4.84258">
        <ele>312.195496</ele>
        <time>2020-08-11T07:13:54.403Z</time>
      </trkpt>
      <trkpt lat="45.56685" lon="4.84237">
        <ele>310.926117</ele>
        <time>2020-08-11T07:14:00.406Z</time>
      </trkpt>
      <trkpt lat="45.56693" lon="4.84217">
        <ele>309.224792</ele>
        <time>2020-08-11T07:14:05.409Z</time>
      </trkpt>
      <trkpt lat="45.56705" lon="4.8419">
        <ele>307.249023</ele>
        <time>2020-08-11T07:14:11.417Z</time>
      </trkpt>
      <trkpt lat="45.56708" lon="4.84172">
        <ele>305.576935</ele>
        <time>2020-08-11T07:14:17.406Z</time>
      </trkpt>
      <trkpt lat="45.56697" lon="4.84175">
        <ele>304.507294</ele>
        <time>2020-08-11T07:14:24.412Z</time>
      </trkpt>
      <trkpt lat="45.56686" lon="4.8419">
        <ele>304.156464</ele>
        <time>2020-08-11T07:14:32.399Z</time>
      </trkpt>
      <trkpt lat="45.56683" lon="4.84207">
        <ele>305.615753</ele>
        <time>2020-08-11T07:14:38.410Z</time>
      </trkpt>
      <trkpt lat="45.56676" lon="4.84221">
        <ele>304.835022</ele>
        <time>2020-08-11T07:14:43.421Z</time>
      </trkpt>
      <trkpt lat="45.56669" lon="4.84238">
        <ele>302.433319</ele>
        <time>2020-08-11T07:14:49.406Z</time>
      </trkpt>
      <trkpt lat="45.56661" lon="4.84253">
        <ele>302.458862</ele>
        <time>2020-08-11T07:14:54.409Z</time>
      </trkpt>
      <trkpt lat="45.5665" lon="4.84263">
        <ele>302.243805</ele>
        <time>2020-08-11T07:15:00.414Z</time>
      </trkpt>
      <trkpt lat="45.56639" lon="4.84275">
        <ele>301.517822</ele>
        <time>2020-08-11T07:15:06.411Z</time>
      </trkpt>
      <trkpt lat="45.56636" lon="4.84294">
        <ele>301.798279</ele>
        <time>2020-08-11T07:15:12.406Z</time>
      </trkpt>
      <trkpt lat="45.56627" lon="4.84313">
        <ele>305.165436</ele>
        <time>2020-08-11T07:15:18.390Z</time>
      </trkpt>
      <trkpt lat="45.56621" lon="4.84329">
        <ele>308.883606</ele>
        <time>2020-08-11T07:15:23.412Z</time>
      </trkpt>
      <trkpt lat="45.56616" lon="4.84342">
        <ele>311.122894</ele>
        <time>2020-08-11T07:15:28.414Z</time>
      </trkpt>
      <trkpt lat="45.56605" lon="4.84352">
        <ele>313.383179</ele>
        <time>2020-08-11T07:15:34.395Z</time>
      </trkpt>
      <trkpt lat="45.56599" lon="4.84363">
        <ele>314.225677</ele>
        <time>2020-08-11T07:15:39.404Z</time>
      </trkpt>
      <trkpt lat="45.56591" lon="4.84384">
        <ele>314.977356</ele>
        <time>2020-08-11T07:15:45.388Z</time>
      </trkpt>
      <trkpt lat="45.56586" lon="4.844">
        <ele>314.711304</ele>
        <time>2020-08-11T07:15:50.400Z</time>
      </trkpt>
      <trkpt lat="45.5657" lon="4.84412">
        <ele>313.598602</ele>
        <time>2020-08-11T07:15:59.409Z</time>
      </trkpt>
      <trkpt lat="45.56552" lon="4.84424">
        <ele>316.603302</ele>
        <time>2020-08-11T07:16:07.394Z</time>
      </trkpt>
      <trkpt lat="45.5655" lon="4.84437">
        <ele>316.639618</ele>
        <time>2020-08-11T07:16:12.403Z</time>
      </trkpt>
      <trkpt lat="45.56554" lon="4.84464">
        <ele>318.84668</ele>
        <time>2020-08-11T07:16:18.494Z</time>
      </trkpt>
      <trkpt lat="45.56553" lon="4.84484">
        <ele>320.881531</ele>
        <time>2020-08-11T07:16:24.376Z</time>
      </trkpt>
      <trkpt lat="45.56547" lon="4.84499">
        <ele>320.928467</ele>
        <time>2020-08-11T07:16:29.405Z</time>
      </trkpt>
      <trkpt lat="45.56539" lon="4.84511">
        <ele>321.035217</ele>
        <time>2020-08-11T07:16:37.441Z</time>
      </trkpt>
      <trkpt lat="45.56532" lon="4.8453">
        <ele>320.780365</ele>
        <time>2020-08-11T07:16:49.051Z</time>
      </trkpt>
      <trkpt lat="45.56525" lon="4.84559">
        <ele>320.750214</ele>
        <time>2020-08-11T07:17:01.463Z</time>
      </trkpt>
      <trkpt lat="45.56507" lon="4.846">
        <ele>320.097504</ele>
        <time>2020-08-11T07:17:14.328Z</time>
      </trkpt>
      <trkpt lat="45.56481" lon="4.8461">
        <ele>317.495728</ele>
        <time>2020-08-11T07:17:28.395Z</time>
      </trkpt>
      <trkpt lat="45.56473" lon="4.84603">
        <ele>316.514496</ele>
        <time>2020-08-11T07:17:33.396Z</time>
      </trkpt>
      <trkpt lat="45.5647" lon="4.84594">
        <ele>316.798615</ele>
        <time>2020-08-11T07:17:51.008Z</time>
      </trkpt>
      <trkpt lat="45.56449" lon="4.84583">
        <ele>318.067902</ele>
        <time>2020-08-11T07:17:56.400Z</time>
      </trkpt>
      <trkpt lat="45.56443" lon="4.84576">
        <ele>318.67981</ele>
        <time>2020-08-11T07:18:09.657Z</time>
      </trkpt>
      <trkpt lat="45.56426" lon="4.84562">
        <ele>318.776855</ele>
        <time>2020-08-11T07:18:21.973Z</time>
      </trkpt>
      <trkpt lat="45.5641" lon="4.84551">
        <ele>329.334259</ele>
        <time>2020-08-11T07:18:30.409Z</time>
      </trkpt>
      <trkpt lat="45.56399" lon="4.84546">
        <ele>329.597321</ele>
        <time>2020-08-11T07:18:36.383Z</time>
      </trkpt>
      <trkpt lat="45.56393" lon="4.84546">
        <ele>329.094818</ele>
        <time>2020-08-11T07:18:41.402Z</time>
      </trkpt>
      <trkpt lat="45.56389" lon="4.84548">
        <ele>328.637238</ele>
        <time>2020-08-11T07:18:57.713Z</time>
      </trkpt>
      <trkpt lat="45.56344" lon="4.84532">
        <ele>330.159729</ele>
        <time>2020-08-11T07:19:03.400Z</time>
      </trkpt>
      <trkpt lat="45.56333" lon="4.84528">
        <ele>330.249603</ele>
        <time>2020-08-11T07:19:10.062Z</time>
      </trkpt>
      <trkpt lat="45.56319" lon="4.84519">
        <ele>331.440765</ele>
        <time>2020-08-11T07:19:22.491Z</time>
      </trkpt>
      <trkpt lat="45.56314" lon="4.84493">
        <ele>336.735687</ele>
        <time>2020-08-11T07:19:30.408Z</time>
      </trkpt>
      <trkpt lat="45.56306" lon="4.84488">
        <ele>338.757874</ele>
        <time>2020-08-11T07:19:35.412Z</time>
      </trkpt>
      <trkpt lat="45.56293" lon="4.8449">
        <ele>338.631897</ele>
        <time>2020-08-11T07:19:41.418Z</time>
      </trkpt>
      <trkpt lat="45.56279" lon="4.84495">
        <ele>337.246674</ele>
        <time>2020-08-11T07:20:02.219Z</time>
      </trkpt>
      <trkpt lat="45.56211" lon="4.84509">
        <ele>339.620117</ele>
        <time>2020-08-11T07:20:18.970Z</time>
      </trkpt>
      <trkpt lat="45.56176" lon="4.84503">
        <ele>340.897705</ele>
        <time>2020-08-11T07:20:25.424Z</time>
      </trkpt>
      <trkpt lat="45.56157" lon="4.84501">
        <ele>342.785217</ele>
        <time>2020-08-11T07:20:34.406Z</time>
      </trkpt>
      <trkpt lat="45.56143" lon="4.84502">
        <ele>344.534668</ele>
        <time>2020-08-11T07:20:40.421Z</time>
      </trkpt>
      <trkpt lat="45.56131" lon="4.84498">
        <ele>345.57254</ele>
        <time>2020-08-11T07:20:45.433Z</time>
      </trkpt>
      <trkpt lat="45.56116" lon="4.84493">
        <ele>347.239655</ele>
        <time>2020-08-11T07:20:51.405Z</time>
      </trkpt>
      <trkpt lat="45.56102" lon="4.84483">
        <ele>349.237183</ele>
        <time>2020-08-11T07:20:57.405Z</time>
      </trkpt>
      <trkpt lat="45.56105" lon="4.84448">
        <ele>348.960968</ele>
        <time>2020-08-11T07:21:06.420Z</time>
      </trkpt>
      <trkpt lat="45.56102" lon="4.84424">
        <ele>350.408691</ele>
        <time>2020-08-11T07:21:14.408Z</time>
      </trkpt>
      <trkpt lat="45.56091" lon="4.8442">
        <ele>350.349823</ele>
        <time>2020-08-11T07:21:20.407Z</time>
      </trkpt>
      <trkpt lat="45.56093" lon="4.84399">
        <ele>350.227356</ele>
        <time>2020-08-11T07:21:26.407Z</time>
      </trkpt>
      <trkpt lat="45.56097" lon="4.84378">
        <ele>349.345123</ele>
        <time>2020-08-11T07:21:32.404Z</time>
      </trkpt>
      <trkpt lat="45.56099" lon="4.84357">
        <ele>350.197998</ele>
        <time>2020-08-11T07:21:38.413Z</time>
      </trkpt>
      <trkpt lat="45.56098" lon="4.84335">
        <ele>348.874878</ele>
        <time>2020-08-11T07:21:44.405Z</time>
      </trkpt>
      <trkpt lat="45.561" lon="4.8431">
        <ele>348.078979</ele>
        <time>2020-08-11T07:21:50.404Z</time>
      </trkpt>
      <trkpt lat="45.56093" lon="4.84293">
        <ele>347.824738</ele>
        <time>2020-08-11T07:21:56.429Z</time>
      </trkpt>
      <trkpt lat="45.56078" lon="4.8429">
        <ele>347.641144</ele>
        <time>2020-08-11T07:22:02.407Z</time>
      </trkpt>
      <trkpt lat="45.56066" lon="4.8429">
        <ele>346.015656</ele>
        <time>2020-08-11T07:22:08.406Z</time>
      </trkpt>
      <trkpt lat="45.56055" lon="4.84289">
        <ele>345.798798</ele>
        <time>2020-08-11T07:22:13.406Z</time>
      </trkpt>
      <trkpt lat="45.56041" lon="4.84287">
        <ele>347.42926</ele>
        <time>2020-08-11T07:22:19.408Z</time>
      </trkpt>
      <trkpt lat="45.5602" lon="4.84291">
        <ele>350.943604</ele>
        <time>2020-08-11T07:22:26.368Z</time>
      </trkpt>
      <trkpt lat="45.56007" lon="4.84288">
        <ele>353.319855</ele>
        <time>2020-08-11T07:22:31.383Z</time>
      </trkpt>
      <trkpt lat="45.55996" lon="4.84283">
        <ele>353.883484</ele>
        <time>2020-08-11T07:22:36.397Z</time>
      </trkpt>
      <trkpt lat="45.55983" lon="4.84283">
        <ele>356.241882</ele>
        <time>2020-08-11T07:22:51.406Z</time>
      </trkpt>
      <trkpt lat="45.55977" lon="4.8429">
        <ele>355.37088</ele>
        <time>2020-08-11T07:22:57.412Z</time>
      </trkpt>
      <trkpt lat="45.55964" lon="4.84292">
        <ele>354.94931</ele>
        <time>2020-08-11T07:23:03.393Z</time>
      </trkpt>
      <trkpt lat="45.5595" lon="4.84292">
        <ele>355.571442</ele>
        <time>2020-08-11T07:23:08.403Z</time>
      </trkpt>
      <trkpt lat="45.55936" lon="4.84293">
        <ele>354.357941</ele>
        <time>2020-08-11T07:23:14.403Z</time>
      </trkpt>
      <trkpt lat="45.55917" lon="4.84293">
        <ele>353.208344</ele>
        <time>2020-08-11T07:23:22.000Z</time>
      </trkpt>
      <trkpt lat="45.55889" lon="4.84298">
        <ele>352.609589</ele>
        <time>2020-08-11T07:23:31.409Z</time>
      </trkpt>
      <trkpt lat="45.55877" lon="4.84299">
        <ele>354.680786</ele>
        <time>2020-08-11T07:23:37.413Z</time>
      </trkpt>
      <trkpt lat="45.55866" lon="4.84301">
        <ele>358.062683</ele>
        <time>2020-08-11T07:23:43.399Z</time>
      </trkpt>
      <trkpt lat="45.55859" lon="4.843">
        <ele>358.741516</ele>
        <time>2020-08-11T07:23:49.394Z</time>
      </trkpt>
      <trkpt lat="45.55857" lon="4.84292">
        <ele>358.919861</ele>
        <time>2020-08-11T07:23:55.389Z</time>
      </trkpt>
      <trkpt lat="45.55853" lon="4.84276">
        <ele>357.939972</ele>
        <time>2020-08-11T07:24:00.426Z</time>
      </trkpt>
      <trkpt lat="45.5585" lon="4.8425">
        <ele>357.537628</ele>
        <time>2020-08-11T07:24:06.382Z</time>
      </trkpt>
      <trkpt lat="45.55845" lon="4.84223">
        <ele>357.989929</ele>
        <time>2020-08-11T07:24:12.391Z</time>
      </trkpt>
      <trkpt lat="45.55844" lon="4.84203">
        <ele>359.868073</ele>
        <time>2020-08-11T07:24:18.407Z</time>
      </trkpt>
      <trkpt lat="45.55852" lon="4.84194">
        <ele>359.188446</ele>
        <time>2020-08-11T07:24:24.403Z</time>
      </trkpt>
      <trkpt lat="45.5586" lon="4.84192">
        <ele>358.353027</ele>
        <time>2020-08-11T07:24:30.391Z</time>
      </trkpt>
      <trkpt lat="45.55867" lon="4.84193">
        <ele>358.050629</ele>
        <time>2020-08-11T07:24:35.397Z</time>
      </trkpt>
      <trkpt lat="45.55877" lon="4.84191">
        <ele>357.313232</ele>
        <time>2020-08-11T07:24:41.394Z</time>
      </trkpt>
      <trkpt lat="45.55884" lon="4.84188">
        <ele>355.854858</ele>
        <time>2020-08-11T07:24:46.394Z</time>
      </trkpt>
      <trkpt lat="45.55898" lon="4.84179">
        <ele>354.255951</ele>
        <time>2020-08-11T07:24:52.388Z</time>
      </trkpt>
      <trkpt lat="45.55908" lon="4.84165">
        <ele>354.714935</ele>
        <time>2020-08-11T07:24:57.398Z</time>
      </trkpt>
      <trkpt lat="45.55923" lon="4.84144">
        <ele>354.7052</ele>
        <time>2020-08-11T07:25:03.388Z</time>
      </trkpt>
      <trkpt lat="45.55933" lon="4.8413">
        <ele>353.69751</ele>
        <time>2020-08-11T07:25:08.404Z</time>
      </trkpt>
      <trkpt lat="45.55943" lon="4.84117">
        <ele>353.095337</ele>
        <time>2020-08-11T07:25:14.389Z</time>
      </trkpt>
      <trkpt lat="45.55954" lon="4.841">
        <ele>352.179749</ele>
        <time>2020-08-11T07:25:21.602Z</time>
      </trkpt>
      <trkpt lat="45.55959" lon="4.84052">
        <ele>351.3974</ele>
        <time>2020-08-11T07:25:30.392Z</time>
      </trkpt>
      <trkpt lat="45.55954" lon="4.84038">
        <ele>348.648834</ele>
        <time>2020-08-11T07:25:35.403Z</time>
      </trkpt>
      <trkpt lat="45.5595" lon="4.84016">
        <ele>348.983612</ele>
        <time>2020-08-11T07:25:40.406Z</time>
      </trkpt>
      <trkpt lat="45.55941" lon="4.83997">
        <ele>349.602081</ele>
        <time>2020-08-11T07:25:46.403Z</time>
      </trkpt>
      <trkpt lat="45.55928" lon="4.83983">
        <ele>348.224884</ele>
        <time>2020-08-11T07:25:52.401Z</time>
      </trkpt>
      <trkpt lat="45.55921" lon="4.83953">
        <ele>347.00177</ele>
        <time>2020-08-11T07:25:58.398Z</time>
      </trkpt>
      <trkpt lat="45.55916" lon="4.83925">
        <ele>346.632721</ele>
        <time>2020-08-11T07:26:04.404Z</time>
      </trkpt>
      <trkpt lat="45.55899" lon="4.8391">
        <ele>346.990112</ele>
        <time>2020-08-11T07:26:09.404Z</time>
      </trkpt>
      <trkpt lat="45.55886" lon="4.83899">
        <ele>347.702698</ele>
        <time>2020-08-11T07:26:14.405Z</time>
      </trkpt>
      <trkpt lat="45.55873" lon="4.83884">
        <ele>346.777496</ele>
        <time>2020-08-11T07:26:20.386Z</time>
      </trkpt>
      <trkpt lat="45.55862" lon="4.83875">
        <ele>340.3396</ele>
        <time>2020-08-11T07:26:42.163Z</time>
      </trkpt>
      <trkpt lat="45.55803" lon="4.83816">
        <ele>342.177765</ele>
        <time>2020-08-11T07:26:48.403Z</time>
      </trkpt>
      <trkpt lat="45.55779" lon="4.8379">
        <ele>341.162201</ele>
        <time>2020-08-11T07:26:58.408Z</time>
      </trkpt>
      <trkpt lat="45.55773" lon="4.83772">
        <ele>338.618317</ele>
        <time>2020-08-11T07:27:03.416Z</time>
      </trkpt>
      <trkpt lat="45.55766" lon="4.83746">
        <ele>336.416809</ele>
        <time>2020-08-11T07:27:09.376Z</time>
      </trkpt>
      <trkpt lat="45.55762" lon="4.83727">
        <ele>335.562836</ele>
        <time>2020-08-11T07:27:14.411Z</time>
      </trkpt>
      <trkpt lat="45.55762" lon="4.83704">
        <ele>335.509338</ele>
        <time>2020-08-11T07:27:20.422Z</time>
      </trkpt>
      <trkpt lat="45.55764" lon="4.83689">
        <ele>334.351563</ele>
        <time>2020-08-11T07:27:26.412Z</time>
      </trkpt>
      <trkpt lat="45.55769" lon="4.83674">
        <ele>332.783112</ele>
        <time>2020-08-11T07:27:32.404Z</time>
      </trkpt>
      <trkpt lat="45.55771" lon="4.83656">
        <ele>329.923096</ele>
        <time>2020-08-11T07:27:38.387Z</time>
      </trkpt>
      <trkpt lat="45.55771" lon="4.83637">
        <ele>327.157623</ele>
        <time>2020-08-11T07:27:43.404Z</time>
      </trkpt>
      <trkpt lat="45.55771" lon="4.83623">
        <ele>324.319336</ele>
        <time>2020-08-11T07:27:48.408Z</time>
      </trkpt>
      <trkpt lat="45.55766" lon="4.83615">
        <ele>322.011169</ele>
        <time>2020-08-11T07:27:53.410Z</time>
      </trkpt>
      <trkpt lat="45.55757" lon="4.83609">
        <ele>319.558105</ele>
        <time>2020-08-11T07:27:59.413Z</time>
      </trkpt>
      <trkpt lat="45.55757" lon="4.83596">
        <ele>315.891205</ele>
        <time>2020-08-11T07:28:05.393Z</time>
      </trkpt>
      <trkpt lat="45.55762" lon="4.83585">
        <ele>312.97525</ele>
        <time>2020-08-11T07:28:10.400Z</time>
      </trkpt>
      <trkpt lat="45.55769" lon="4.83569">
        <ele>310.827942</ele>
        <time>2020-08-11T07:28:16.415Z</time>
      </trkpt>
      <trkpt lat="45.55767" lon="4.83556">
        <ele>309.687805</ele>
        <time>2020-08-11T07:28:22.403Z</time>
      </trkpt>
      <trkpt lat="45.55765" lon="4.83536">
        <ele>308.110992</ele>
        <time>2020-08-11T07:28:28.380Z</time>
      </trkpt>
      <trkpt lat="45.55761" lon="4.8352">
        <ele>307.454254</ele>
        <time>2020-08-11T07:28:33.402Z</time>
      </trkpt>
      <trkpt lat="45.55762" lon="4.83509">
        <ele>306.720032</ele>
        <time>2020-08-11T07:28:38.423Z</time>
      </trkpt>
      <trkpt lat="45.55772" lon="4.83516">
        <ele>306.652771</ele>
        <time>2020-08-11T07:28:44.397Z</time>
      </trkpt>
      <trkpt lat="45.5578" lon="4.8352">
        <ele>306.629883</ele>
        <time>2020-08-11T07:28:49.409Z</time>
      </trkpt>
      <trkpt lat="45.55785" lon="4.8352">
        <ele>308.056244</ele>
        <time>2020-08-11T07:28:54.409Z</time>
      </trkpt>
      <trkpt lat="45.55791" lon="4.83527">
        <ele>309.462433</ele>
        <time>2020-08-11T07:29:00.402Z</time>
      </trkpt>
      <trkpt lat="45.55797" lon="4.83531">
        <ele>311.184967</ele>
        <time>2020-08-11T07:29:06.394Z</time>
      </trkpt>
      <trkpt lat="45.558" lon="4.83536">
        <ele>313.29599</ele>
        <time>2020-08-11T07:29:11.409Z</time>
      </trkpt>
      <trkpt lat="45.55807" lon="4.8354">
        <ele>316.080841</ele>
        <time>2020-08-11T07:29:17.408Z</time>
      </trkpt>
      <trkpt lat="45.55814" lon="4.8354">
        <ele>319.419006</ele>
        <time>2020-08-11T07:29:22.412Z</time>
      </trkpt>
      <trkpt lat="45.5582" lon="4.83545">
        <ele>320.712555</ele>
        <time>2020-08-11T07:29:28.381Z</time>
      </trkpt>
      <trkpt lat="45.55824" lon="4.8355">
        <ele>320.210114</ele>
        <time>2020-08-11T07:29:33.403Z</time>
      </trkpt>
      <trkpt lat="45.5583" lon="4.83557">
        <ele>320.498047</ele>
        <time>2020-08-11T07:29:39.389Z</time>
      </trkpt>
      <trkpt lat="45.55834" lon="4.83564">
        <ele>321.104462</ele>
        <time>2020-08-11T07:29:44.391Z</time>
      </trkpt>
      <trkpt lat="45.55839" lon="4.83571">
        <ele>322.376343</ele>
        <time>2020-08-11T07:29:49.402Z</time>
      </trkpt>
      <trkpt lat="45.55846" lon="4.83578">
        <ele>323.917236</ele>
        <time>2020-08-11T07:29:55.395Z</time>
      </trkpt>
      <trkpt lat="45.55853" lon="4.83582">
        <ele>325.2005</ele>
        <time>2020-08-11T07:30:00.411Z</time>
      </trkpt>
      <trkpt lat="45.55865" lon="4.83593">
        <ele>325.763397</ele>
        <time>2020-08-11T07:30:08.393Z</time>
      </trkpt>
      <trkpt lat="45.55882" lon="4.83609">
        <ele>327.752563</ele>
        <time>2020-08-11T07:30:29.120Z</time>
      </trkpt>
      <trkpt lat="45.55928" lon="4.8365">
        <ele>334.600861</ele>
        <time>2020-08-11T07:30:41.198Z</time>
      </trkpt>
      <trkpt lat="45.55947" lon="4.83666">
        <ele>338.462372</ele>
        <time>2020-08-11T07:30:48.400Z</time>
      </trkpt>
      <trkpt lat="45.55958" lon="4.83677">
        <ele>338.869049</ele>
        <time>2020-08-11T07:30:53.402Z</time>
      </trkpt>
      <trkpt lat="45.55969" lon="4.83687">
        <ele>339.046814</ele>
        <time>2020-08-11T07:30:58.407Z</time>
      </trkpt>
      <trkpt lat="45.55991" lon="4.83709">
        <ele>338.162384</ele>
        <time>2020-08-11T07:31:07.395Z</time>
      </trkpt>
      <trkpt lat="45.56003" lon="4.83718">
        <ele>338.912201</ele>
        <time>2020-08-11T07:31:13.384Z</time>
      </trkpt>
      <trkpt lat="45.56016" lon="4.83728">
        <ele>340.05304</ele>
        <time>2020-08-11T07:31:18.393Z</time>
      </trkpt>
      <trkpt lat="45.56028" lon="4.83738">
        <ele>340.319672</ele>
        <time>2020-08-11T07:31:23.402Z</time>
      </trkpt>
      <trkpt lat="45.56042" lon="4.83746">
        <ele>341.914673</ele>
        <time>2020-08-11T07:31:29.409Z</time>
      </trkpt>
      <trkpt lat="45.56054" lon="4.83752">
        <ele>341.314636</ele>
        <time>2020-08-11T07:31:36.192Z</time>
      </trkpt>
      <trkpt lat="45.56069" lon="4.83718">
        <ele>338.973419</ele>
        <time>2020-08-11T07:31:52.985Z</time>
      </trkpt>
      <trkpt lat="45.56089" lon="4.83647">
        <ele>337.420654</ele>
        <time>2020-08-11T07:32:03.403Z</time>
      </trkpt>
      <trkpt lat="45.56096" lon="4.83629">
        <ele>338.754395</ele>
        <time>2020-08-11T07:32:09.408Z</time>
      </trkpt>
      <trkpt lat="45.56101" lon="4.83608">
        <ele>339.615784</ele>
        <time>2020-08-11T07:32:14.422Z</time>
      </trkpt>
      <trkpt lat="45.56108" lon="4.83585">
        <ele>339.30014</ele>
        <time>2020-08-11T07:32:20.426Z</time>
      </trkpt>
      <trkpt lat="45.56125" lon="4.83552">
        <ele>338.363068</ele>
        <time>2020-08-11T07:32:30.397Z</time>
      </trkpt>
      <trkpt lat="45.56132" lon="4.83538">
        <ele>337.33017</ele>
        <time>2020-08-11T07:32:51.670Z</time>
      </trkpt>
      <trkpt lat="45.56154" lon="4.83431">
        <ele>333.30542</ele>
        <time>2020-08-11T07:32:58.430Z</time>
      </trkpt>
      <trkpt lat="45.56157" lon="4.83381">
        <ele>330.273376</ele>
        <time>2020-08-11T07:33:09.412Z</time>
      </trkpt>
      <trkpt lat="45.56156" lon="4.83348">
        <ele>328.576324</ele>
        <time>2020-08-11T07:33:19.408Z</time>
      </trkpt>
      <trkpt lat="45.56138" lon="4.8334">
        <ele>330.261993</ele>
        <time>2020-08-11T07:33:25.401Z</time>
      </trkpt>
      <trkpt lat="45.56115" lon="4.83323">
        <ele>328.777161</ele>
        <time>2020-08-11T07:33:34.417Z</time>
      </trkpt>
      <trkpt lat="45.56094" lon="4.8331">
        <ele>327.259125</ele>
        <time>2020-08-11T07:33:42.387Z</time>
      </trkpt>
      <trkpt lat="45.5608" lon="4.83298">
        <ele>325.040375</ele>
        <time>2020-08-11T07:33:47.406Z</time>
      </trkpt>
      <trkpt lat="45.56063" lon="4.83287">
        <ele>325.525726</ele>
        <time>2020-08-11T07:33:52.408Z</time>
      </trkpt>
      <trkpt lat="45.56042" lon="4.83266">
        <ele>324.630127</ele>
        <time>2020-08-11T07:33:59.391Z</time>
      </trkpt>
      <trkpt lat="45.56029" lon="4.83253">
        <ele>323.912537</ele>
        <time>2020-08-11T07:34:04.402Z</time>
      </trkpt>
      <trkpt lat="45.56005" lon="4.83233">
        <ele>323.133636</ele>
        <time>2020-08-11T07:34:14.389Z</time>
      </trkpt>
      <trkpt lat="45.55997" lon="4.83232">
        <ele>318.619232</ele>
        <time>2020-08-11T07:34:19.394Z</time>
      </trkpt>
      <trkpt lat="45.5599" lon="4.83263">
        <ele>312.640991</ele>
        <time>2020-08-11T07:34:26.392Z</time>
      </trkpt>
      <trkpt lat="45.55986" lon="4.83279">
        <ele>310.104004</ele>
        <time>2020-08-11T07:34:31.401Z</time>
      </trkpt>
      <trkpt lat="45.55972" lon="4.83279">
        <ele>308.331146</ele>
        <time>2020-08-11T07:34:36.401Z</time>
      </trkpt>
      <trkpt lat="45.55953" lon="4.83269">
        <ele>306.040527</ele>
        <time>2020-08-11T07:34:42.399Z</time>
      </trkpt>
      <trkpt lat="45.55934" lon="4.83261">
        <ele>304.444641</ele>
        <time>2020-08-11T07:34:48.391Z</time>
      </trkpt>
      <trkpt lat="45.55927" lon="4.8327">
        <ele>301.841644</ele>
        <time>2020-08-11T07:34:54.403Z</time>
      </trkpt>
      <trkpt lat="45.55922" lon="4.83276">
        <ele>299.426178</ele>
        <time>2020-08-11T07:34:59.403Z</time>
      </trkpt>
      <trkpt lat="45.55916" lon="4.83281">
        <ele>300.857086</ele>
        <time>2020-08-11T07:35:05.392Z</time>
      </trkpt>
      <trkpt lat="45.55909" lon="4.83284">
        <ele>304.808075</ele>
        <time>2020-08-11T07:35:10.401Z</time>
      </trkpt>
      <trkpt lat="45.559" lon="4.83278">
        <ele>306.570862</ele>
        <time>2020-08-11T07:35:19.403Z</time>
      </trkpt>
      <trkpt lat="45.55878" lon="4.83269">
        <ele>304.014069</ele>
        <time>2020-08-11T07:35:26.397Z</time>
      </trkpt>
      <trkpt lat="45.55862" lon="4.83262">
        <ele>301.438507</ele>
        <time>2020-08-11T07:35:31.402Z</time>
      </trkpt>
      <trkpt lat="45.55848" lon="4.83262">
        <ele>298.883209</ele>
        <time>2020-08-11T07:35:37.407Z</time>
      </trkpt>
      <trkpt lat="45.55839" lon="4.83261">
        <ele>296.620361</ele>
        <time>2020-08-11T07:35:44.399Z</time>
      </trkpt>
      <trkpt lat="45.55816" lon="4.83251">
        <ele>292.103485</ele>
        <time>2020-08-11T07:35:53.417Z</time>
      </trkpt>
      <trkpt lat="45.55806" lon="4.83259">
        <ele>289.806702</ele>
        <time>2020-08-11T07:35:59.401Z</time>
      </trkpt>
      <trkpt lat="45.55798" lon="4.83277">
        <ele>288.260101</ele>
        <time>2020-08-11T07:36:04.409Z</time>
      </trkpt>
      <trkpt lat="45.55791" lon="4.83298">
        <ele>287.415527</ele>
        <time>2020-08-11T07:36:10.408Z</time>
      </trkpt>
      <trkpt lat="45.5579" lon="4.83318">
        <ele>289.732269</ele>
        <time>2020-08-11T07:36:16.411Z</time>
      </trkpt>
      <trkpt lat="45.55784" lon="4.83347">
        <ele>289.085602</ele>
        <time>2020-08-11T07:36:24.395Z</time>
      </trkpt>
      <trkpt lat="45.55777" lon="4.83361">
        <ele>288.124359</ele>
        <time>2020-08-11T07:36:29.400Z</time>
      </trkpt>
      <trkpt lat="45.55762" lon="4.83385">
        <ele>286.53183</ele>
        <time>2020-08-11T07:36:37.406Z</time>
      </trkpt>
      <trkpt lat="45.55749" lon="4.83404">
        <ele>285.662476</ele>
        <time>2020-08-11T07:36:43.391Z</time>
      </trkpt>
      <trkpt lat="45.55747" lon="4.83417">
        <ele>285.214752</ele>
        <time>2020-08-11T07:36:48.403Z</time>
      </trkpt>
      <trkpt lat="45.55743" lon="4.83424">
        <ele>284.264526</ele>
        <time>2020-08-11T07:36:53.406Z</time>
      </trkpt>
      <trkpt lat="45.55738" lon="4.83434">
        <ele>283.952942</ele>
        <time>2020-08-11T07:36:59.451Z</time>
      </trkpt>
      <trkpt lat="45.55737" lon="4.83441">
        <ele>284.866028</ele>
        <time>2020-08-11T07:37:05.395Z</time>
      </trkpt>
      <trkpt lat="45.55735" lon="4.83447">
        <ele>287.136993</ele>
        <time>2020-08-11T07:37:10.395Z</time>
      </trkpt>
      <trkpt lat="45.55732" lon="4.83454">
        <ele>289.18454</ele>
        <time>2020-08-11T07:37:15.401Z</time>
      </trkpt>
      <trkpt lat="45.55729" lon="4.83462">
        <ele>291.762451</ele>
        <time>2020-08-11T07:37:21.390Z</time>
      </trkpt>
      <trkpt lat="45.55724" lon="4.83468">
        <ele>293.175812</ele>
        <time>2020-08-11T07:37:26.408Z</time>
      </trkpt>
      <trkpt lat="45.55721" lon="4.83474">
        <ele>294.242432</ele>
        <time>2020-08-11T07:37:31.414Z</time>
      </trkpt>
      <trkpt lat="45.55718" lon="4.83481">
        <ele>296.703918</ele>
        <time>2020-08-11T07:37:36.424Z</time>
      </trkpt>
      <trkpt lat="45.55711" lon="4.83482">
        <ele>298.856812</ele>
        <time>2020-08-11T07:37:42.376Z</time>
      </trkpt>
      <trkpt lat="45.55713" lon="4.83482">
        <ele>298.675446</ele>
        <time>2020-08-11T07:37:48.406Z</time>
      </trkpt>
      <trkpt lat="45.55722" lon="4.83485">
        <ele>298.383667</ele>
        <time>2020-08-11T07:37:53.411Z</time>
      </trkpt>
      <trkpt lat="45.5573" lon="4.83489">
        <ele>298.362244</ele>
        <time>2020-08-11T07:37:59.408Z</time>
      </trkpt>
      <trkpt lat="45.55728" lon="4.83495">
        <ele>298.102966</ele>
        <time>2020-08-11T07:38:04.421Z</time>
      </trkpt>
      <trkpt lat="45.55723" lon="4.83504">
        <ele>297.311127</ele>
        <time>2020-08-11T07:38:10.383Z</time>
      </trkpt>
      <trkpt lat="45.55719" lon="4.83508">
        <ele>297.614716</ele>
        <time>2020-08-11T07:38:15.428Z</time>
      </trkpt>
      <trkpt lat="45.55715" lon="4.83514">
        <ele>295.881256</ele>
        <time>2020-08-11T07:38:21.400Z</time>
      </trkpt>
      <trkpt lat="45.55711" lon="4.83518">
        <ele>293.970428</ele>
        <time>2020-08-11T07:38:27.410Z</time>
      </trkpt>
      <trkpt lat="45.55711" lon="4.83521">
        <ele>293.373138</ele>
        <time>2020-08-11T07:38:35.406Z</time>
      </trkpt>
      <trkpt lat="45.55711" lon="4.83522">
        <ele>291.874451</ele>
        <time>2020-08-11T07:38:40.429Z</time>
      </trkpt>
      <trkpt lat="45.55711" lon="4.83526">
        <ele>289.960175</ele>
        <time>2020-08-11T07:38:45.435Z</time>
      </trkpt>
      <trkpt lat="45.55702" lon="4.83526">
        <ele>287.112732</ele>
        <time>2020-08-11T07:38:55.432Z</time>
      </trkpt>
      <trkpt lat="45.55696" lon="4.83527">
        <ele>286.085907</ele>
        <time>2020-08-11T07:39:00.442Z</time>
      </trkpt>
      <trkpt lat="45.55688" lon="4.83528">
        <ele>284.251495</ele>
        <time>2020-08-11T07:39:05.449Z</time>
      </trkpt>
      <trkpt lat="45.55679" lon="4.83532">
        <ele>283.140015</ele>
        <time>2020-08-11T07:39:11.402Z</time>
      </trkpt>
      <trkpt lat="45.55663" lon="4.83533">
        <ele>281.506287</ele>
        <time>2020-08-11T07:39:19.389Z</time>
      </trkpt>
      <trkpt lat="45.55657" lon="4.83525">
        <ele>280.451538</ele>
        <time>2020-08-11T07:39:24.408Z</time>
      </trkpt>
      <trkpt lat="45.55642" lon="4.83516">
        <ele>279.408936</ele>
        <time>2020-08-11T07:39:31.396Z</time>
      </trkpt>
      <trkpt lat="45.55631" lon="4.8351">
        <ele>277.364288</ele>
        <time>2020-08-11T07:39:36.406Z</time>
      </trkpt>
      <trkpt lat="45.55626" lon="4.83508">
        <ele>273.776642</ele>
        <time>2020-08-11T07:39:41.413Z</time>
      </trkpt>
      <trkpt lat="45.55622" lon="4.83504">
        <ele>273.021179</ele>
        <time>2020-08-11T07:39:51.393Z</time>
      </trkpt>
      <trkpt lat="45.55617" lon="4.83501">
        <ele>272.15921</ele>
        <time>2020-08-11T07:40:09.779Z</time>
      </trkpt>
      <trkpt lat="45.55607" lon="4.83492">
        <ele>267.075012</ele>
        <time>2020-08-11T07:40:31.197Z</time>
      </trkpt>
      <trkpt lat="45.55576" lon="4.83483">
        <ele>262.810211</ele>
        <time>2020-08-11T07:40:36.387Z</time>
      </trkpt>
      <trkpt lat="45.55566" lon="4.8347">
        <ele>261.276337</ele>
        <time>2020-08-11T07:40:43.598Z</time>
      </trkpt>
      <trkpt lat="45.55547" lon="4.83443">
        <ele>257.473145</ele>
        <time>2020-08-11T07:41:02.202Z</time>
      </trkpt>
      <trkpt lat="45.55527" lon="4.83403">
        <ele>250.149139</ele>
        <time>2020-08-11T07:41:20.850Z</time>
      </trkpt>
      <trkpt lat="45.55516" lon="4.83359">
        <ele>243.276337</ele>
        <time>2020-08-11T07:41:39.458Z</time>
      </trkpt>
      <trkpt lat="45.55489" lon="4.83334">
        <ele>237.147247</ele>
        <time>2020-08-11T07:41:58.068Z</time>
      </trkpt>
      <trkpt lat="45.5548" lon="4.83317">
        <ele>233.891418</ele>
        <time>2020-08-11T07:42:16.773Z</time>
      </trkpt>
      <trkpt lat="45.55468" lon="4.83285">
        <ele>222.644547</ele>
        <time>2020-08-11T07:42:35.401Z</time>
      </trkpt>
      <trkpt lat="45.55468" lon="4.83184">
        <ele>248.568649</ele>
        <time>2020-08-11T07:42:47.817Z</time>
      </trkpt>
      <trkpt lat="45.55483" lon="4.83147">
        <ele>208.179382</ele>
        <time>2020-08-11T07:43:06.455Z</time>
      </trkpt>
      <trkpt lat="45.55524" lon="4.83115">
        <ele>205.806213</ele>
        <time>2020-08-11T07:43:17.010Z</time>
      </trkpt>
      <trkpt lat="45.55555" lon="4.83074">
        <ele>217.196121</ele>
        <time>2020-08-11T07:43:25.382Z</time>
      </trkpt>
      <trkpt lat="45.55565" lon="4.83062">
        <ele>211.449051</ele>
        <time>2020-08-11T07:43:30.398Z</time>
      </trkpt>
      <trkpt lat="45.55574" lon="4.83049">
        <ele>206.940994</ele>
        <time>2020-08-11T07:43:35.401Z</time>
      </trkpt>
      <trkpt lat="45.55586" lon="4.83031">
        <ele>203.51976</ele>
        <time>2020-08-11T07:43:40.406Z</time>
      </trkpt>
      <trkpt lat="45.556" lon="4.83007">
        <ele>205.216171</ele>
        <time>2020-08-11T07:43:46.409Z</time>
      </trkpt>
      <trkpt lat="45.5561" lon="4.82991">
        <ele>203.846588</ele>
        <time>2020-08-11T07:43:51.411Z</time>
      </trkpt>
      <trkpt lat="45.55625" lon="4.82966">
        <ele>202.738251</ele>
        <time>2020-08-11T07:43:57.407Z</time>
      </trkpt>
      <trkpt lat="45.55637" lon="4.82948">
        <ele>202.866486</ele>
        <time>2020-08-11T07:44:02.417Z</time>
      </trkpt>
      <trkpt lat="45.55649" lon="4.8293">
        <ele>203.549194</ele>
        <time>2020-08-11T07:44:08.398Z</time>
      </trkpt>
      <trkpt lat="45.5566" lon="4.82911">
        <ele>204.81369</ele>
        <time>2020-08-11T07:44:13.402Z</time>
      </trkpt>
      <trkpt lat="45.55671" lon="4.82897">
        <ele>203.284195</ele>
        <time>2020-08-11T07:44:19.412Z</time>
      </trkpt>
      <trkpt lat="45.55684" lon="4.82873">
        <ele>202.966766</ele>
        <time>2020-08-11T07:44:25.409Z</time>
      </trkpt>
      <trkpt lat="45.55695" lon="4.82859">
        <ele>203.032349</ele>
        <time>2020-08-11T07:44:30.410Z</time>
      </trkpt>
      <trkpt lat="45.55721" lon="4.82821">
        <ele>201.867996</ele>
        <time>2020-08-11T07:44:40.407Z</time>
      </trkpt>
      <trkpt lat="45.55732" lon="4.82806">
        <ele>198.603821</ele>
        <time>2020-08-11T07:44:45.411Z</time>
      </trkpt>
      <trkpt lat="45.55747" lon="4.82787">
        <ele>199.637787</ele>
        <time>2020-08-11T07:44:53.388Z</time>
      </trkpt>
    </trkseg>
  </trk>
</gpx>